Wetterdaten: Montag, 29.05.2023
Datum Zeit Temp. 2m Temp +5 cm Feuchte A. Luftdruck Regen Wind Richtung Richtung Sonnenschein UV Solar Taupunkt Windchill Windben
29.05.2023 00:00 13,7 C 10,6 C 73 % 1020,9 hPa 0,0 l/m 8,4 km/h (2 Bft) N 360 0 min 0,0 UV-I 0 W/m 8,9 C 12,5 C 16,1 km/h (3 Bft)
29.05.2023 00:03 13,6 C 10,0 C 73 % 1021,0 hPa 0,0 l/m 5,9 km/h (2 Bft) N 5 0 min 0,0 UV-I 0 W/m 8,9 C 13,6 C 12,9 km/h (3 Bft)
29.05.2023 00:06 13,6 C 10,0 C 73 % 1021,1 hPa 0,0 l/m 7,6 km/h (2 Bft) N 5 0 min 0,0 UV-I 0 W/m 8,9 C 12,9 C 14,5 km/h (3 Bft)
29.05.2023 00:09 13,4 C 10,0 C 73 % 1021,0 hPa 0,0 l/m 7,5 km/h (2 Bft) N-NO 28 0 min 0,0 UV-I 0 W/m 8,7 C 12,7 C 17,7 km/h (3 Bft)
29.05.2023 00:12 13,5 C 10,0 C 73 % 1021,1 hPa 0,0 l/m 9,4 km/h (2 Bft) N 5 0 min 0,0 UV-I 0 W/m 8,8 C 11,8 C 14,5 km/h (3 Bft)
29.05.2023 00:15 13,6 C 10,0 C 73 % 1021,1 hPa 0,0 l/m 9,4 km/h (2 Bft) N-NW 331 0 min 0,0 UV-I 0 W/m 8,9 C 11,9 C 16,1 km/h (3 Bft)
29.05.2023 00:18 13,6 C 10,0 C 73 % 1021,1 hPa 0,0 l/m 8,6 km/h (2 Bft) N 360 0 min 0,0 UV-I 0 W/m 8,9 C 12,3 C 16,1 km/h (3 Bft)
29.05.2023 00:21 13,4 C 10,0 C 74 % 1021,1 hPa 0,0 l/m 7,8 km/h (2 Bft) N-NO 15 0 min 0,0 UV-I 0 W/m 8,9 C 12,5 C 12,9 km/h (3 Bft)
29.05.2023 00:24 13,3 C 10,0 C 74 % 1021,0 hPa 0,0 l/m 8,8 km/h (2 Bft) N 5 0 min 0,0 UV-I 0 W/m 8,8 C 11,9 C 12,9 km/h (3 Bft)
29.05.2023 00:27 13,3 C 10,0 C 74 % 1020,9 hPa 0,0 l/m 10,4 km/h (2 Bft) N 360 0 min 0,0 UV-I 0 W/m 8,8 C 11,0 C 16,1 km/h (3 Bft)
29.05.2023 00:30 13,4 C 10,6 C 74 % 1021,0 hPa 0,0 l/m 13,0 km/h (3 Bft) N 351 0 min 0,0 UV-I 0 W/m 8,9 C 10,0 C 17,7 km/h (3 Bft)
29.05.2023 00:33 13,5 C 10,6 C 74 % 1021,0 hPa 0,0 l/m 10,0 km/h (2 Bft) N 5 0 min 0,0 UV-I 0 W/m 9,0 C 11,5 C 16,1 km/h (3 Bft)
29.05.2023 00:36 13,4 C 10,6 C 74 % 1021,0 hPa 0,0 l/m 10,3 km/h (2 Bft) N 351 0 min 0,0 UV-I 0 W/m 8,9 C 11,2 C 17,7 km/h (3 Bft)
29.05.2023 00:39 13,4 C 10,6 C 74 % 1021,0 hPa 0,0 l/m 7,9 km/h (2 Bft) N 5 0 min 0,0 UV-I 0 W/m 8,9 C 12,5 C 14,5 km/h (3 Bft)
29.05.2023 00:42 13,3 C 10,6 C 74 % 1021,0 hPa 0,0 l/m 10,6 km/h (2 Bft) N-NO 14 0 min 0,0 UV-I 0 W/m 8,8 C 10,9 C 16,1 km/h (3 Bft)
29.05.2023 00:45 13,4 C 10,0 C 74 % 1021,0 hPa 0,0 l/m 9,7 km/h (2 Bft) N-NO 15 0 min 0,0 UV-I 0 W/m 8,9 C 11,5 C 14,5 km/h (3 Bft)
29.05.2023 00:48 13,3 C 10,0 C 74 % 1020,9 hPa 0,0 l/m 8,5 km/h (2 Bft) N 360 0 min 0,0 UV-I 0 W/m 8,8 C 12,0 C 14,5 km/h (3 Bft)
29.05.2023 00:51 13,2 C 10,0 C 74 % 1020,8 hPa 0,0 l/m 8,5 km/h (2 Bft) N 355 0 min 0,0 UV-I 0 W/m 8,7 C 11,9 C 14,5 km/h (3 Bft)
29.05.2023 00:54 13,1 C 9,4 C 75 % 1020,9 hPa 0,0 l/m 5,5 km/h (1 Bft) N 5 0 min 0,0 UV-I 0 W/m 8,8 C 13,1 C 8,0 km/h (2 Bft)
29.05.2023 00:57 12,9 C 9,4 C 75 % 1021,0 hPa 0,0 l/m 4,6 km/h (1 Bft) N 11 0 min 0,0 UV-I 0 W/m 8,6 C 12,9 C 6,4 km/h (2 Bft)
29.05.2023 01:00 12,8 C 9,4 C 76 % 1021,0 hPa 0,0 l/m 5,7 km/h (1 Bft) N 5 0 min 0,0 UV-I 0 W/m 8,7 C 12,8 C 9,7 km/h (2 Bft)
29.05.2023 01:03 12,8 C 8,9 C 75 % 1021,0 hPa 0,0 l/m 4,7 km/h (1 Bft) N-NO 33 0 min 0,0 UV-I 0 W/m 8,5 C 12,8 C 11,3 km/h (2 Bft)
29.05.2023 01:06 12,7 C 8,9 C 76 % 1021,0 hPa 0,0 l/m 7,6 km/h (2 Bft) N 5 0 min 0,0 UV-I 0 W/m 8,6 C 11,9 C 12,9 km/h (3 Bft)
29.05.2023 01:09 12,7 C 8,9 C 76 % 1020,9 hPa 0,0 l/m 8,2 km/h (2 Bft) N 355 0 min 0,0 UV-I 0 W/m 8,6 C 11,6 C 12,9 km/h (3 Bft)
29.05.2023 01:12 12,7 C 8,9 C 76 % 1020,9 hPa 0,0 l/m 6,8 km/h (2 Bft) N 355 0 min 0,0 UV-I 0 W/m 8,6 C 12,5 C 14,5 km/h (3 Bft)
29.05.2023 01:15 12,7 C 8,9 C 76 % 1020,8 hPa 0,0 l/m 7,8 km/h (2 Bft) N 355 0 min 0,0 UV-I 0 W/m 8,6 C 11,8 C 12,9 km/h (3 Bft)
29.05.2023 01:18 12,7 C 9,4 C 76 % 1020,9 hPa 0,0 l/m 9,2 km/h (2 Bft) N-NW 331 0 min 0,0 UV-I 0 W/m 8,6 C 11,0 C 12,9 km/h (3 Bft)
29.05.2023 01:21 12,7 C 9,4 C 76 % 1020,9 hPa 0,0 l/m 8,8 km/h (2 Bft) N-NW 334 0 min 0,0 UV-I 0 W/m 8,6 C 11,2 C 14,5 km/h (3 Bft)
29.05.2023 01:24 12,8 C 9,4 C 75 % 1020,9 hPa 0,0 l/m 6,4 km/h (2 Bft) NO 36 0 min 0,0 UV-I 0 W/m 8,5 C 12,8 C 14,5 km/h (3 Bft)
29.05.2023 01:27 12,6 C 9,4 C 76 % 1020,9 hPa 0,0 l/m 0,9 km/h (0 Bft) NO 36 0 min 0,0 UV-I 0 W/m 8,5 C 12,6 C 3,2 km/h (1 Bft)
29.05.2023 01:30 12,6 C 9,4 C 76 % 1020,9 hPa 0,0 l/m 2,2 km/h (1 Bft) NO 36 0 min 0,0 UV-I 0 W/m 8,5 C 12,6 C 4,8 km/h (1 Bft)
29.05.2023 01:33 12,5 C 8,9 C 76 % 1020,8 hPa 0,0 l/m 3,1 km/h (1 Bft) N-NO 28 0 min 0,0 UV-I 0 W/m 8,4 C 12,5 C 6,4 km/h (2 Bft)
29.05.2023 01:36 12,4 C 8,9 C 76 % 1020,8 hPa 0,0 l/m 6,0 km/h (2 Bft) N-NO 15 0 min 0,0 UV-I 0 W/m 8,3 C 12,4 C 12,9 km/h (3 Bft)
29.05.2023 01:39 12,2 C 8,3 C 77 % 1020,9 hPa 0,0 l/m 4,6 km/h (1 Bft) N 9 0 min 0,0 UV-I 0 W/m 8,3 C 12,2 C 12,9 km/h (3 Bft)
29.05.2023 01:42 12,1 C 8,3 C 77 % 1020,9 hPa 0,0 l/m 1,9 km/h (1 Bft) N 9 0 min 0,0 UV-I 0 W/m 8,2 C 12,1 C 4,8 km/h (1 Bft)
29.05.2023 01:45 12,1 C 8,9 C 77 % 1020,9 hPa 0,0 l/m 1,8 km/h (1 Bft) N 9 0 min 0,0 UV-I 0 W/m 8,2 C 12,1 C 4,8 km/h (1 Bft)
29.05.2023 01:48 12,2 C 8,9 C 77 % 1021,0 hPa 0,0 l/m 3,8 km/h (1 Bft) N-NW 344 0 min 0,0 UV-I 0 W/m 8,3 C 12,2 C 8,0 km/h (2 Bft)
29.05.2023 01:51 12,1 C 8,3 C 77 % 1020,9 hPa 0,0 l/m 5,3 km/h (1 Bft) N-NW 346 0 min 0,0 UV-I 0 W/m 8,2 C 12,1 C 8,0 km/h (2 Bft)
29.05.2023 01:54 12,0 C 8,3 C 77 % 1020,8 hPa 0,0 l/m 1,6 km/h (1 Bft) N-NW 346 0 min 0,0 UV-I 0 W/m 8,1 C 12,0 C 6,4 km/h (2 Bft)
29.05.2023 01:57 12,0 C 8,3 C 78 % 1021,0 hPa 0,0 l/m 1,9 km/h (1 Bft) N-NW 346 0 min 0,0 UV-I 0 W/m 8,3 C 12,0 C 4,8 km/h (1 Bft)
29.05.2023 02:00 12,0 C 8,3 C 77 % 1021,0 hPa 0,0 l/m 3,3 km/h (1 Bft) N 5 0 min 0,0 UV-I 0 W/m 8,1 C 12,0 C 8,0 km/h (2 Bft)
29.05.2023 02:03 12,0 C 8,3 C 77 % 1021,0 hPa 0,0 l/m 4,2 km/h (1 Bft) N-NW 330 0 min 0,0 UV-I 0 W/m 8,1 C 12,0 C 9,7 km/h (2 Bft)
29.05.2023 02:06 12,0 C 8,9 C 77 % 1021,1 hPa 0,0 l/m 6,2 km/h (2 Bft) N-NW 333 0 min 0,0 UV-I 0 W/m 8,1 C 12,0 C 9,7 km/h (2 Bft)
29.05.2023 02:09 11,9 C 8,3 C 78 % 1021,0 hPa 0,0 l/m 7,4 km/h (2 Bft) N 350 0 min 0,0 UV-I 0 W/m 8,2 C 11,2 C 9,7 km/h (2 Bft)
29.05.2023 02:12 11,8 C 8,3 C 78 % 1021,0 hPa 0,0 l/m 5,3 km/h (1 Bft) N-NW 348 0 min 0,0 UV-I 0 W/m 8,1 C 11,8 C 8,0 km/h (2 Bft)
29.05.2023 02:15 11,8 C 8,3 C 78 % 1021,0 hPa 0,0 l/m 2,4 km/h (1 Bft) N-NW 346 0 min 0,0 UV-I 0 W/m 8,1 C 11,8 C 6,4 km/h (2 Bft)
29.05.2023 02:18 11,7 C 8,3 C 78 % 1021,1 hPa 0,0 l/m 4,2 km/h (1 Bft) N-NW 347 0 min 0,0 UV-I 0 W/m 8,0 C 11,7 C 12,9 km/h (3 Bft)
29.05.2023 02:21 11,6 C 8,3 C 79 % 1021,1 hPa 0,0 l/m 2,7 km/h (1 Bft) N 5 0 min 0,0 UV-I 0 W/m 8,1 C 11,6 C 6,4 km/h (2 Bft)
29.05.2023 02:24 11,7 C 8,3 C 79 % 1021,0 hPa 0,0 l/m 4,1 km/h (1 Bft) NW 321 0 min 0,0 UV-I 0 W/m 8,2 C 11,7 C 11,3 km/h (2 Bft)
29.05.2023 02:27 11,5 C 8,3 C 79 % 1021,0 hPa 0,0 l/m 4,3 km/h (1 Bft) NW 324 0 min 0,0 UV-I 0 W/m 8,0 C 11,5 C 8,0 km/h (2 Bft)
29.05.2023 02:30 11,5 C 8,3 C 79 % 1021,1 hPa 0,0 l/m 3,8 km/h (1 Bft) N-NW 334 0 min 0,0 UV-I 0 W/m 8,0 C 11,5 C 6,4 km/h (2 Bft)
29.05.2023 02:33 11,4 C 8,3 C 79 % 1021,0 hPa 0,0 l/m 2,8 km/h (1 Bft) N 349 0 min 0,0 UV-I 0 W/m 7,9 C 11,4 C 6,4 km/h (2 Bft)
29.05.2023 02:36 11,4 C 8,3 C 79 % 1021,0 hPa 0,0 l/m 2,9 km/h (1 Bft) NW 317 0 min 0,0 UV-I 0 W/m 7,9 C 11,4 C 6,4 km/h (2 Bft)
29.05.2023 02:39 11,4 C 8,3 C 79 % 1021,0 hPa 0,0 l/m 3,5 km/h (1 Bft) N 355 0 min 0,0 UV-I 0 W/m 7,9 C 11,4 C 6,4 km/h (2 Bft)
29.05.2023 02:42 11,3 C 7,8 C 79 % 1021,0 hPa 0,0 l/m 3,3 km/h (1 Bft) NW 323 0 min 0,0 UV-I 0 W/m 7,8 C 11,3 C 8,0 km/h (2 Bft)
29.05.2023 02:45 11,2 C 7,8 C 79 % 1021,0 hPa 0,0 l/m 4,0 km/h (1 Bft) N-NW 338 0 min 0,0 UV-I 0 W/m 7,7 C 11,2 C 8,0 km/h (2 Bft)
29.05.2023 02:48 11,2 C 7,8 C 79 % 1021,0 hPa 0,0 l/m 5,1 km/h (1 Bft) N-NW 340 0 min 0,0 UV-I 0 W/m 7,7 C 11,2 C 12,9 km/h (3 Bft)
29.05.2023 02:51 11,2 C 8,3 C 80 % 1021,0 hPa 0,0 l/m 5,3 km/h (1 Bft) N 351 0 min 0,0 UV-I 0 W/m 7,9 C 11,2 C 11,3 km/h (2 Bft)
29.05.2023 02:54 11,1 C 8,3 C 80 % 1021,0 hPa 0,0 l/m 3,6 km/h (1 Bft) N 349 0 min 0,0 UV-I 0 W/m 7,8 C 11,1 C 12,9 km/h (3 Bft)
29.05.2023 02:57 11,1 C 8,3 C 80 % 1021,0 hPa 0,0 l/m 7,5 km/h (2 Bft) N 5 0 min 0,0 UV-I 0 W/m 7,8 C 10,3 C 14,5 km/h (3 Bft)
29.05.2023 03:00 11,1 C 7,8 C 80 % 1021,0 hPa 0,0 l/m 6,1 km/h (2 Bft) N 349 0 min 0,0 UV-I 0 W/m 7,8 C 11,1 C 12,9 km/h (3 Bft)
29.05.2023 03:03 11,0 C 8,3 C 80 % 1021,1 hPa 0,0 l/m 8,3 km/h (2 Bft) N-NW 327 0 min 0,0 UV-I 0 W/m 7,7 C 9,7 C 12,9 km/h (3 Bft)
29.05.2023 03:06 10,9 C 7,8 C 80 % 1021,0 hPa 0,0 l/m 5,8 km/h (2 Bft) N 355 0 min 0,0 UV-I 0 W/m 7,6 C 10,9 C 9,7 km/h (2 Bft)
29.05.2023 03:09 10,9 C 8,3 C 80 % 1021,1 hPa 0,0 l/m 8,7 km/h (2 Bft) N-NW 340 0 min 0,0 UV-I 0 W/m 7,6 C 9,4 C 14,5 km/h (3 Bft)
29.05.2023 03:12 11,0 C 8,3 C 81 % 1021,0 hPa 0,0 l/m 9,7 km/h (2 Bft) N-NW 344 0 min 0,0 UV-I 0 W/m 7,9 C 8,9 C 14,5 km/h (3 Bft)
29.05.2023 03:15 10,9 C 8,3 C 80 % 1020,9 hPa 0,0 l/m 7,4 km/h (2 Bft) N-NW 348 0 min 0,0 UV-I 0 W/m 7,6 C 10,2 C 9,7 km/h (2 Bft)
29.05.2023 03:18 10,9 C 8,3 C 80 % 1020,9 hPa 0,0 l/m 8,2 km/h (2 Bft) N-NW 332 0 min 0,0 UV-I 0 W/m 7,6 C 9,7 C 14,5 km/h (3 Bft)
29.05.2023 03:21 11,0 C 8,3 C 81 % 1021,0 hPa 0,0 l/m 8,5 km/h (2 Bft) N 355 0 min 0,0 UV-I 0 W/m 7,9 C 9,6 C 14,5 km/h (3 Bft)
29.05.2023 03:24 10,9 C 8,3 C 80 % 1021,0 hPa 0,0 l/m 7,3 km/h (2 Bft) N-NW 346 0 min 0,0 UV-I 0 W/m 7,6 C 10,3 C 11,3 km/h (2 Bft)
29.05.2023 03:27 10,7 C 7,8 C 80 % 1021,0 hPa 0,0 l/m 5,0 km/h (1 Bft) N-NW 348 0 min 0,0 UV-I 0 W/m 7,4 C 10,7 C 6,4 km/h (2 Bft)
29.05.2023 03:30 10,4 C 7,8 C 81 % 1021,0 hPa 0,0 l/m 4,0 km/h (1 Bft) N 355 0 min 0,0 UV-I 0 W/m 7,3 C 10,4 C 6,4 km/h (2 Bft)
29.05.2023 03:33 10,3 C 7,8 C 81 % 1020,9 hPa 0,0 l/m 5,3 km/h (1 Bft) N 360 0 min 0,0 UV-I 0 W/m 7,2 C 10,3 C 8,0 km/h (2 Bft)
29.05.2023 03:36 10,1 C 7,2 C 82 % 1020,9 hPa 0,0 l/m 5,2 km/h (1 Bft) N-NW 348 0 min 0,0 UV-I 0 W/m 7,2 C 10,1 C 6,4 km/h (2 Bft)
29.05.2023 03:39 9,9 C 7,2 C 83 % 1020,9 hPa 0,0 l/m 5,3 km/h (1 Bft) N 355 0 min 0,0 UV-I 0 W/m 7,2 C 9,9 C 8,0 km/h (2 Bft)
29.05.2023 03:42 9,8 C 7,2 C 83 % 1020,8 hPa 0,0 l/m 4,4 km/h (1 Bft) N 360 0 min 0,0 UV-I 0 W/m 7,1 C 9,8 C 6,4 km/h (2 Bft)
29.05.2023 03:45 9,8 C 6,7 C 84 % 1020,9 hPa 0,0 l/m 4,9 km/h (1 Bft) N 360 0 min 0,0 UV-I 0 W/m 7,2 C 9,8 C 6,4 km/h (2 Bft)
29.05.2023 03:48 9,9 C 6,7 C 84 % 1020,9 hPa 0,0 l/m 5,7 km/h (1 Bft) N 5 0 min 0,0 UV-I 0 W/m 7,3 C 9,9 C 8,0 km/h (2 Bft)
29.05.2023 03:51 9,9 C 6,7 C 84 % 1020,9 hPa 0,0 l/m 4,8 km/h (1 Bft) N 5 0 min 0,0 UV-I 0 W/m 7,3 C 9,9 C 6,4 km/h (2 Bft)
29.05.2023 03:54 10,0 C 6,7 C 84 % 1020,9 hPa 0,0 l/m 5,1 km/h (1 Bft) N-NO 18 0 min 0,0 UV-I 0 W/m 7,4 C 10,0 C 8,0 km/h (2 Bft)
29.05.2023 03:57 9,9 C 6,7 C 84 % 1020,8 hPa 0,0 l/m 4,6 km/h (1 Bft) N-NO 17 0 min 0,0 UV-I 0 W/m 7,3 C 9,9 C 6,4 km/h (2 Bft)
29.05.2023 04:00 9,7 C 6,7 C 84 % 1020,8 hPa 0,0 l/m 1,3 km/h (1 Bft) N-NO 17 0 min 0,0 UV-I 0 W/m 7,1 C 9,7 C 4,8 km/h (1 Bft)
29.05.2023 04:03 9,6 C 6,7 C 84 % 1020,8 hPa 0,0 l/m 0,0 km/h (0 Bft) N-NO 17 0 min 0,0 UV-I 0 W/m 7,0 C 9,6 C 0,0 km/h (0 Bft)
29.05.2023 04:06 9,5 C 6,7 C 84 % 1020,9 hPa 0,0 l/m 0,0 km/h (0 Bft) N-NO 17 0 min 0,0 UV-I 0 W/m 6,9 C 9,5 C 0,0 km/h (0 Bft)
29.05.2023 04:09 9,4 C 7,2 C 85 % 1020,9 hPa 0,0 l/m 0,1 km/h (0 Bft) N-NO 17 0 min 0,0 UV-I 0 W/m 7,0 C 9,4 C 1,6 km/h (1 Bft)
29.05.2023 04:12 9,3 C 7,2 C 85 % 1020,8 hPa 0,0 l/m 0,1 km/h (0 Bft) N-NO 17 0 min 0,0 UV-I 0 W/m 6,9 C 9,3 C 1,6 km/h (1 Bft)
29.05.2023 04:15 9,4 C 7,2 C 85 % 1020,8 hPa 0,0 l/m 0,0 km/h (0 Bft) N-NO 17 0 min 0,0 UV-I 0 W/m 7,0 C 9,4 C 1,6 km/h (1 Bft)
29.05.2023 04:18 9,5 C 7,2 C 86 % 1020,8 hPa 0,0 l/m 0,4 km/h (0 Bft) N-NO 17 0 min 0,0 UV-I 0 W/m 7,3 C 9,5 C 1,6 km/h (1 Bft)
29.05.2023 04:21 9,7 C 7,2 C 86 % 1020,8 hPa 0,0 l/m 2,6 km/h (1 Bft) N-NO 17 0 min 0,0 UV-I 0 W/m 7,5 C 9,7 C 4,8 km/h (1 Bft)
29.05.2023 04:24 9,7 C 6,7 C 86 % 1020,8 hPa 0,0 l/m 2,9 km/h (1 Bft) N-NO 13 0 min 0,0 UV-I 0 W/m 7,5 C 9,7 C 4,8 km/h (1 Bft)
29.05.2023 04:27 9,8 C 7,2 C 85 % 1020,9 hPa 0,0 l/m 3,1 km/h (1 Bft) N-NO 13 0 min 0,0 UV-I 0 W/m 7,4 C 9,8 C 4,8 km/h (1 Bft)
29.05.2023 04:30 9,8 C 6,7 C 85 % 1020,9 hPa 0,0 l/m 3,9 km/h (1 Bft) N 11 0 min 0,0 UV-I 0 W/m 7,4 C 9,8 C 6,4 km/h (2 Bft)
29.05.2023 04:33 9,6 C 6,7 C 85 % 1020,8 hPa 0,0 l/m 4,4 km/h (1 Bft) N 11 0 min 0,0 UV-I 0 W/m 7,2 C 9,6 C 8,0 km/h (2 Bft)
29.05.2023 04:36 9,5 C 6,7 C 85 % 1020,8 hPa 0,0 l/m 4,3 km/h (1 Bft) N 11 0 min 0,0 UV-I 0 W/m 7,1 C 9,5 C 6,4 km/h (2 Bft)
29.05.2023 04:39 9,4 C 6,7 C 86 % 1020,8 hPa 0,0 l/m 3,0 km/h (1 Bft) N 11 0 min 0,0 UV-I 0 W/m 7,2 C 9,4 C 4,8 km/h (1 Bft)
29.05.2023 04:42 9,4 C 6,7 C 86 % 1020,9 hPa 0,0 l/m 1,7 km/h (1 Bft) N 11 0 min 0,0 UV-I 0 W/m 7,2 C 9,4 C 4,8 km/h (1 Bft)
29.05.2023 04:45 9,4 C 6,7 C 86 % 1020,9 hPa 0,0 l/m 3,2 km/h (1 Bft) N 10 0 min 0,0 UV-I 0 W/m 7,2 C 9,4 C 6,4 km/h (2 Bft)
29.05.2023 04:48 9,5 C 6,7 C 87 % 1020,9 hPa 0,0 l/m 2,9 km/h (1 Bft) N 10 0 min 0,0 UV-I 0 W/m 7,4 C 9,5 C 4,8 km/h (1 Bft)
29.05.2023 04:51 9,4 C 6,7 C 86 % 1021,1 hPa 0,0 l/m 3,7 km/h (1 Bft) N 360 0 min 0,0 UV-I 0 W/m 7,2 C 9,4 C 4,8 km/h (1 Bft)
29.05.2023 04:54 9,4 C 6,7 C 86 % 1021,0 hPa 0,0 l/m 6,2 km/h (2 Bft) N 355 0 min 0,0 UV-I 0 W/m 7,2 C 9,4 C 8,0 km/h (2 Bft)
29.05.2023 04:57 9,3 C 6,1 C 86 % 1021,0 hPa 0,0 l/m 3,9 km/h (1 Bft) N 355 0 min 0,0 UV-I 0 W/m 7,1 C 9,3 C 8,0 km/h (2 Bft)
29.05.2023 05:00 8,9 C 6,1 C 86 % 1020,9 hPa 0,0 l/m 1,3 km/h (1 Bft) N 355 0 min 0,0 UV-I 0 W/m 6,7 C 8,9 C 4,8 km/h (1 Bft)
29.05.2023 05:03 9,0 C 6,1 C 87 % 1021,0 hPa 0,0 l/m 1,7 km/h (1 Bft) N 355 0 min 0,0 UV-I 0 W/m 7,0 C 9,0 C 4,8 km/h (1 Bft)
29.05.2023 05:06 9,1 C 6,1 C 87 % 1021,0 hPa 0,0 l/m 5,0 km/h (1 Bft) N 350 0 min 0,0 UV-I 0 W/m 7,1 C 9,1 C 8,0 km/h (2 Bft)
29.05.2023 05:09 9,2 C 6,1 C 87 % 1021,0 hPa 0,0 l/m 7,0 km/h (2 Bft) N 355 0 min 0,0 UV-I 0 W/m 7,2 C 8,8 C 9,7 km/h (2 Bft)
29.05.2023 05:12 9,1 C 6,1 C 87 % 1021,1 hPa 0,0 l/m 8,9 km/h (2 Bft) N-NO 17 0 min 0,0 UV-I 0 W/m 7,1 C 7,3 C 17,7 km/h (3 Bft)
29.05.2023 05:15 9,2 C 7,2 C 87 % 1020,9 hPa 0,0 l/m 10,2 km/h (2 Bft) N 355 0 min 0,0 UV-I 0 W/m 7,2 C 6,6 C 17,7 km/h (3 Bft)
29.05.2023 05:18 9,3 C 7,2 C 87 % 1021,1 hPa 0,0 l/m 9,7 km/h (2 Bft) N 11 0 min 0,0 UV-I 0 W/m 7,2 C 7,0 C 14,5 km/h (3 Bft)
29.05.2023 05:21 9,2 C 7,2 C 87 % 1021,2 hPa 0,0 l/m 9,1 km/h (2 Bft) N 5 0 min 0,0 UV-I 0 W/m 7,2 C 7,3 C 17,7 km/h (3 Bft)
29.05.2023 05:24 9,2 C 7,2 C 87 % 1021,1 hPa 0,0 l/m 12,5 km/h (3 Bft) N 5 0 min 0,0 UV-I 0 W/m 7,2 C 5,3 C 22,5 km/h (4 Bft)
29.05.2023 05:27 9,2 C 7,8 C 87 % 1021,1 hPa 0,0 l/m 12,6 km/h (3 Bft) N 11 0 min 0,0 UV-I 0 W/m 7,2 C 5,3 C 20,9 km/h (4 Bft)
29.05.2023 05:30 9,2 C 7,8 C 87 % 1021,1 hPa 0,0 l/m 12,4 km/h (3 Bft) N-NW 340 0 min 0,0 UV-I 0 W/m 7,2 C 5,4 C 20,9 km/h (4 Bft)
29.05.2023 05:33 9,2 C 7,8 C 87 % 1021,1 hPa 0,0 l/m 14,4 km/h (3 Bft) N 5 0 min 0,0 UV-I 0 W/m 7,2 C 4,4 C 19,3 km/h (3 Bft)
29.05.2023 05:36 9,2 C 7,8 C 86 % 1021,0 hPa 0,0 l/m 11,6 km/h (2 Bft) N 351 0 min 0,0 UV-I 4 W/m 7,0 C 5,8 C 19,3 km/h (3 Bft)
29.05.2023 05:39 9,1 C 7,2 C 86 % 1021,1 hPa 0,0 l/m 10,5 km/h (2 Bft) N 5 0 min 0,0 UV-I 6 W/m 6,9 C 6,3 C 19,3 km/h (3 Bft)
29.05.2023 05:42 8,9 C 7,2 C 86 % 1021,1 hPa 0,0 l/m 9,5 km/h (2 Bft) N-NO 18 0 min 0,0 UV-I 7 W/m 6,7 C 6,7 C 17,7 km/h (3 Bft)
29.05.2023 05:45 8,8 C 7,2 C 86 % 1021,2 hPa 0,0 l/m 7,8 km/h (2 Bft) N 355 0 min 0,0 UV-I 9 W/m 6,6 C 7,7 C 14,5 km/h (3 Bft)
29.05.2023 05:48 8,7 C 7,2 C 87 % 1021,1 hPa 0,0 l/m 9,5 km/h (2 Bft) N-NW 348 0 min 0,0 UV-I 11 W/m 6,7 C 6,5 C 16,1 km/h (3 Bft)
29.05.2023 05:51 8,7 C 7,2 C 86 % 1021,2 hPa 0,0 l/m 8,8 km/h (2 Bft) N-NW 344 0 min 0,0 UV-I 11 W/m 6,5 C 6,9 C 19,3 km/h (3 Bft)
29.05.2023 05:54 8,7 C 7,2 C 87 % 1021,3 hPa 0,0 l/m 10,3 km/h (2 Bft) N-NO 28 0 min 0,0 UV-I 12 W/m 6,7 C 6,0 C 16,1 km/h (3 Bft)
29.05.2023 05:57 8,6 C 7,2 C 86 % 1021,3 hPa 0,0 l/m 8,7 km/h (2 Bft) N-NW 348 0 min 0,0 UV-I 14 W/m 6,4 C 6,9 C 20,9 km/h (4 Bft)
29.05.2023 06:00 8,6 C 7,2 C 86 % 1021,4 hPa 0,0 l/m 7,1 km/h (2 Bft) N 355 0 min 0,0 UV-I 16 W/m 6,4 C 8,1 C 14,5 km/h (3 Bft)
29.05.2023 06:03 8,6 C 7,2 C 86 % 1021,4 hPa 0,0 l/m 8,8 km/h (2 Bft) N-NO 23 0 min 0,0 UV-I 18 W/m 6,4 C 6,8 C 16,1 km/h (3 Bft)
29.05.2023 06:06 8,6 C 7,2 C 86 % 1021,5 hPa 0,0 l/m 7,9 km/h (2 Bft) N 5 0 min 0,0 UV-I 19 W/m 6,4 C 7,5 C 14,5 km/h (3 Bft)
29.05.2023 06:09 8,6 C 7,2 C 86 % 1021,5 hPa 0,0 l/m 9,2 km/h (2 Bft) N-NO 12 0 min 0,0 UV-I 20 W/m 6,4 C 6,6 C 17,7 km/h (3 Bft)
29.05.2023 06:12 8,6 C 7,2 C 86 % 1021,5 hPa 0,0 l/m 6,7 km/h (2 Bft) N 360 0 min 0,0 UV-I 22 W/m 6,4 C 8,4 C 14,5 km/h (3 Bft)
29.05.2023 06:15 8,6 C 7,2 C 86 % 1021,5 hPa 0,0 l/m 6,4 km/h (2 Bft) N 11 0 min 0,0 UV-I 24 W/m 6,4 C 8,6 C 12,9 km/h (3 Bft)
29.05.2023 06:18 8,6 C 7,2 C 86 % 1021,5 hPa 0,0 l/m 6,1 km/h (2 Bft) N 5 0 min 0,0 UV-I 26 W/m 6,4 C 8,6 C 14,5 km/h (3 Bft)
29.05.2023 06:21 8,7 C 7,2 C 86 % 1021,6 hPa 0,0 l/m 5,4 km/h (1 Bft) N 355 0 min 0,0 UV-I 30 W/m 6,5 C 8,7 C 9,7 km/h (2 Bft)
29.05.2023 06:24 8,7 C 7,2 C 86 % 1021,6 hPa 0,0 l/m 3,5 km/h (1 Bft) N 360 0 min 0,0 UV-I 34 W/m 6,5 C 8,7 C 9,7 km/h (2 Bft)
29.05.2023 06:27 8,7 C 7,2 C 86 % 1021,6 hPa 0,0 l/m 3,1 km/h (1 Bft) N 10 0 min 0,0 UV-I 39 W/m 6,5 C 8,7 C 6,4 km/h (2 Bft)
29.05.2023 06:30 8,7 C 7,8 C 86 % 1021,6 hPa 0,0 l/m 5,0 km/h (1 Bft) N-NO 19 0 min 0,0 UV-I 43 W/m 6,5 C 8,7 C 8,0 km/h (2 Bft)
29.05.2023 06:33 8,8 C 7,2 C 86 % 1021,6 hPa 0,0 l/m 5,3 km/h (1 Bft) N-NO 13 0 min 0,0 UV-I 48 W/m 6,6 C 8,8 C 8,0 km/h (2 Bft)
29.05.2023 06:36 8,8 C 7,8 C 86 % 1021,7 hPa 0,0 l/m 5,6 km/h (1 Bft) N-NO 26 0 min 0,0 UV-I 52 W/m 6,6 C 8,8 C 9,7 km/h (2 Bft)
29.05.2023 06:39 8,9 C 7,8 C 86 % 1021,6 hPa 0,0 l/m 5,4 km/h (1 Bft) N 5 0 min 0,0 UV-I 57 W/m 6,7 C 8,9 C 8,0 km/h (2 Bft)
29.05.2023 06:42 8,9 C 7,8 C 86 % 1021,7 hPa 0,0 l/m 5,5 km/h (1 Bft) N 9 0 min 0,0 UV-I 62 W/m 6,7 C 8,9 C 12,9 km/h (3 Bft)
29.05.2023 06:45 9,1 C 7,8 C 86 % 1021,7 hPa 0,0 l/m 6,4 km/h (2 Bft) N 9 0 min 0,0 UV-I 67 W/m 6,9 C 9,1 C 12,9 km/h (3 Bft)
29.05.2023 06:48 9,1 C 7,8 C 86 % 1021,6 hPa 0,0 l/m 7,6 km/h (2 Bft) N-NO 28 0 min 0,0 UV-I 74 W/m 6,9 C 8,2 C 12,9 km/h (3 Bft)
29.05.2023 06:51 9,2 C 7,8 C 86 % 1021,7 hPa 0,0 l/m 8,0 km/h (2 Bft) N-NO 13 0 min 0,0 UV-I 80 W/m 7,0 C 8,0 C 14,5 km/h (3 Bft)
29.05.2023 06:54 9,3 C 8,3 C 85 % 1021,6 hPa 0,0 l/m 8,5 km/h (2 Bft) N-NO 13 0 min 0,0 UV-I 85 W/m 6,9 C 7,8 C 14,5 km/h (3 Bft)
29.05.2023 06:57 9,4 C 8,3 C 85 % 1021,7 hPa 0,0 l/m 7,4 km/h (2 Bft) N-NO 20 0 min 0,0 UV-I 92 W/m 7,0 C 8,7 C 11,3 km/h (2 Bft)
29.05.2023 07:00 9,4 C 8,9 C 85 % 1021,7 hPa 0,0 l/m 5,9 km/h (2 Bft) N 355 0 min 0,0 UV-I 98 W/m 7,0 C 9,4 C 8,0 km/h (2 Bft)
29.05.2023 07:01 9,5 C 8,9 C 85 % 1021,8 hPa 0,0 l/m 6,4 km/h (2 Bft) N 360 0 min 0,0 UV-I 104 W/m 7,1 C 9,5 C 8,0 km/h (2 Bft)
29.05.2023 07:03 9,6 C 9,4 C 85 % 1021,8 hPa 0,0 l/m 5,9 km/h (2 Bft) N-NO 15 0 min 0,0 UV-I 105 W/m 7,2 C 9,6 C 8,0 km/h (2 Bft)
29.05.2023 07:06 9,6 C 10,0 C 84 % 1021,8 hPa 0,0 l/m 5,8 km/h (2 Bft) N 10 0 min 0,4 UV-I 106 W/m 7,0 C 9,6 C 8,0 km/h (2 Bft)
29.05.2023 07:09 9,7 C 10,0 C 84 % 1021,8 hPa 0,0 l/m 6,0 km/h (2 Bft) N-NO 20 0 min 0,5 UV-I 107 W/m 7,1 C 9,7 C 8,0 km/h (2 Bft)
29.05.2023 07:12 9,8 C 10,6 C 84 % 1021,8 hPa 0,0 l/m 4,4 km/h (1 Bft) N-NO 13 0 min 0,5 UV-I 111 W/m 7,2 C 9,8 C 6,4 km/h (2 Bft)
29.05.2023 07:15 9,9 C 10,6 C 84 % 1021,8 hPa 0,0 l/m 4,7 km/h (1 Bft) N-NO 13 0 min 0,5 UV-I 118 W/m 7,3 C 9,9 C 6,4 km/h (2 Bft)
29.05.2023 07:18 9,9 C 11,1 C 84 % 1021,9 hPa 0,0 l/m 5,9 km/h (2 Bft) N-NW 348 0 min 0,6 UV-I 130 W/m 7,3 C 9,9 C 8,0 km/h (2 Bft)
29.05.2023 07:21 10,0 C 11,1 C 84 % 1021,9 hPa 0,0 l/m 6,1 km/h (2 Bft) N-NW 348 3 min 0,6 UV-I 145 W/m 7,4 C 10,0 C 8,0 km/h (2 Bft)
29.05.2023 07:24 10,1 C 11,7 C 84 % 1021,9 hPa 0,0 l/m 4,1 km/h (1 Bft) N-NW 345 3 min 0,6 UV-I 159 W/m 7,5 C 10,1 C 8,0 km/h (2 Bft)
29.05.2023 07:27 10,3 C 11,7 C 83 % 1021,8 hPa 0,0 l/m 5,5 km/h (1 Bft) N 360 3 min 0,7 UV-I 168 W/m 7,5 C 10,3 C 8,0 km/h (2 Bft)
29.05.2023 07:30 10,4 C 12,2 C 83 % 1021,9 hPa 0,0 l/m 6,1 km/h (2 Bft) N 360 3 min 0,7 UV-I 176 W/m 7,6 C 10,4 C 8,0 km/h (2 Bft)
29.05.2023 07:33 10,4 C 11,7 C 83 % 1021,9 hPa 0,0 l/m 7,5 km/h (2 Bft) N 5 3 min 0,7 UV-I 183 W/m 7,6 C 9,6 C 11,3 km/h (2 Bft)
29.05.2023 07:36 10,4 C 11,1 C 82 % 1021,8 hPa 0,0 l/m 8,5 km/h (2 Bft) N 5 3 min 0,8 UV-I 191 W/m 7,5 C 8,9 C 12,9 km/h (3 Bft)
29.05.2023 07:39 10,4 C 11,1 C 83 % 1021,8 hPa 0,0 l/m 8,2 km/h (2 Bft) N-NW 338 3 min 0,8 UV-I 201 W/m 7,6 C 9,1 C 11,3 km/h (2 Bft)
29.05.2023 07:42 10,5 C 10,6 C 82 % 1021,8 hPa 0,0 l/m 6,0 km/h (2 Bft) N-NO 16 3 min 0,8 UV-I 210 W/m 7,6 C 10,5 C 9,7 km/h (2 Bft)
29.05.2023 07:45 10,6 C 10,6 C 83 % 1021,8 hPa 0,0 l/m 6,9 km/h (2 Bft) N-NO 24 3 min 0,9 UV-I 217 W/m 7,8 C 10,3 C 12,9 km/h (3 Bft)
29.05.2023 07:48 10,7 C 10,6 C 83 % 1021,8 hPa 0,0 l/m 6,8 km/h (2 Bft) N 360 3 min 0,9 UV-I 226 W/m 7,9 C 10,4 C 9,7 km/h (2 Bft)
29.05.2023 07:51 10,8 C 10,6 C 82 % 1021,8 hPa 0,0 l/m 6,5 km/h (2 Bft) N-NO 14 3 min 0,9 UV-I 233 W/m 7,9 C 10,8 C 11,3 km/h (2 Bft)
29.05.2023 07:54 10,9 C 11,1 C 82 % 1021,9 hPa 0,0 l/m 6,5 km/h (2 Bft) N-NO 17 3 min 1,0 UV-I 241 W/m 7,9 C 10,9 C 11,3 km/h (2 Bft)
29.05.2023 07:57 11,0 C 11,7 C 82 % 1021,8 hPa 0,0 l/m 6,3 km/h (2 Bft) N 349 3 min 1,0 UV-I 248 W/m 8,0 C 11,0 C 11,3 km/h (2 Bft)
29.05.2023 08:00 10,9 C 12,2 C 81 % 1021,8 hPa 0,0 l/m 6,4 km/h (2 Bft) N-NO 22 3 min 1,1 UV-I 257 W/m 7,8 C 10,9 C 11,3 km/h (2 Bft)
29.05.2023 08:03 11,1 C 12,8 C 81 % 1021,9 hPa 0,0 l/m 7,6 km/h (2 Bft) N-NO 27 3 min 1,1 UV-I 265 W/m 8,0 C 10,3 C 12,9 km/h (3 Bft)
29.05.2023 08:06 11,2 C 12,8 C 81 % 1021,9 hPa 0,0 l/m 9,0 km/h (2 Bft) N-NO 18 3 min 1,2 UV-I 272 W/m 8,1 C 9,5 C 12,9 km/h (3 Bft)
29.05.2023 08:09 11,3 C 12,8 C 82 % 1021,9 hPa 0,0 l/m 11,2 km/h (2 Bft) N 9 3 min 1,2 UV-I 279 W/m 8,3 C 8,4 C 16,1 km/h (3 Bft)
29.05.2023 08:12 11,3 C 12,8 C 81 % 1022,0 hPa 0,0 l/m 12,6 km/h (3 Bft) N-NW 344 3 min 1,2 UV-I 288 W/m 8,2 C 7,7 C 16,1 km/h (3 Bft)
29.05.2023 08:15 11,4 C 12,8 C 82 % 1022,0 hPa 0,0 l/m 9,9 km/h (2 Bft) N 5 3 min 1,3 UV-I 296 W/m 8,4 C 9,2 C 16,1 km/h (3 Bft)
29.05.2023 08:18 11,5 C 12,8 C 81 % 1022,0 hPa 0,0 l/m 11,2 km/h (2 Bft) N 360 3 min 1,3 UV-I 303 W/m 8,4 C 8,6 C 16,1 km/h (3 Bft)
29.05.2023 08:21 11,6 C 12,8 C 81 % 1022,0 hPa 0,0 l/m 9,5 km/h (2 Bft) N 360 3 min 1,3 UV-I 311 W/m 8,5 C 9,6 C 16,1 km/h (3 Bft)
29.05.2023 08:24 11,6 C 13,3 C 80 % 1022,1 hPa 0,0 l/m 9,6 km/h (2 Bft) NW 325 3 min 1,4 UV-I 319 W/m 8,3 C 9,6 C 16,1 km/h (3 Bft)
29.05.2023 08:27 11,7 C 13,3 C 81 % 1022,1 hPa 0,0 l/m 8,5 km/h (2 Bft) N-NO 15 3 min 1,4 UV-I 327 W/m 8,5 C 10,3 C 14,5 km/h (3 Bft)
29.05.2023 08:30 11,8 C 13,3 C 80 % 1022,2 hPa 0,0 l/m 8,5 km/h (2 Bft) N 349 3 min 1,5 UV-I 335 W/m 8,5 C 10,4 C 14,5 km/h (3 Bft)
29.05.2023 08:33 12,1 C 13,9 C 80 % 1022,1 hPa 0,0 l/m 9,0 km/h (2 Bft) N-NW 337 3 min 1,5 UV-I 342 W/m 8,8 C 10,5 C 14,5 km/h (3 Bft)
29.05.2023 08:36 12,1 C 13,9 C 79 % 1022,1 hPa 0,0 l/m 6,3 km/h (2 Bft) N-NW 348 3 min 1,6 UV-I 351 W/m 8,6 C 12,1 C 11,3 km/h (2 Bft)
29.05.2023 08:39 12,2 C 14,4 C 79 % 1022,1 hPa 0,0 l/m 6,3 km/h (2 Bft) N 355 3 min 1,6 UV-I 359 W/m 8,7 C 12,2 C 11,3 km/h (2 Bft)
29.05.2023 08:42 12,4 C 15,0 C 79 % 1022,2 hPa 0,0 l/m 6,7 km/h (2 Bft) N-NW 346 3 min 1,7 UV-I 367 W/m 8,9 C 12,2 C 11,3 km/h (2 Bft)
29.05.2023 08:45 12,5 C 15,0 C 78 % 1022,1 hPa 0,0 l/m 7,3 km/h (2 Bft) N-NO 19 3 min 1,7 UV-I 375 W/m 8,8 C 11,9 C 12,9 km/h (3 Bft)
29.05.2023 08:48 12,6 C 15,0 C 79 % 1022,2 hPa 0,0 l/m 8,8 km/h (2 Bft) N 9 3 min 1,8 UV-I 383 W/m 9,1 C 11,1 C 12,9 km/h (3 Bft)
29.05.2023 08:51 12,7 C 15,0 C 78 % 1022,1 hPa 0,0 l/m 9,9 km/h (2 Bft) N-NO 26 3 min 1,8 UV-I 391 W/m 9,0 C 10,6 C 16,1 km/h (3 Bft)
29.05.2023 08:54 12,8 C 15,6 C 78 % 1022,3 hPa 0,0 l/m 9,7 km/h (2 Bft) N-NW 348 3 min 1,9 UV-I 399 W/m 9,1 C 10,8 C 12,9 km/h (3 Bft)
29.05.2023 08:57 13,0 C 15,6 C 78 % 1022,1 hPa 0,0 l/m 8,0 km/h (2 Bft) N-NW 341 3 min 1,9 UV-I 407 W/m 9,3 C 12,0 C 14,5 km/h (3 Bft)
29.05.2023 09:00 13,3 C 15,6 C 78 % 1022,3 hPa 0,0 l/m 9,8 km/h (2 Bft) N 5 3 min 2,0 UV-I 415 W/m 9,5 C 11,3 C 16,1 km/h (3 Bft)
29.05.2023 09:03 13,6 C 15,6 C 77 % 1022,3 hPa 0,0 l/m 9,1 km/h (2 Bft) N 355 3 min 2,0 UV-I 423 W/m 9,6 C 12,0 C 14,5 km/h (3 Bft)
29.05.2023 09:06 13,5 C 15,6 C 77 % 1022,1 hPa 0,0 l/m 10,6 km/h (2 Bft) N 9 3 min 2,1 UV-I 430 W/m 9,5 C 11,2 C 16,1 km/h (3 Bft)
29.05.2023 09:09 13,6 C 16,1 C 77 % 1022,2 hPa 0,0 l/m 9,7 km/h (2 Bft) N-NW 348 3 min 2,2 UV-I 440 W/m 9,6 C 11,7 C 14,5 km/h (3 Bft)
29.05.2023 09:12 13,7 C 16,7 C 76 % 1022,1 hPa 0,0 l/m 12,4 km/h (3 Bft) N-NW 339 3 min 2,2 UV-I 448 W/m 9,5 C 10,6 C 17,7 km/h (3 Bft)
29.05.2023 09:15 14,0 C 17,2 C 76 % 1022,2 hPa 0,0 l/m 11,1 km/h (2 Bft) N-NW 341 3 min 2,2 UV-I 455 W/m 9,8 C 11,5 C 17,7 km/h (3 Bft)
29.05.2023 09:18 14,0 C 17,2 C 74 % 1022,2 hPa 0,0 l/m 10,7 km/h (2 Bft) N 350 3 min 2,3 UV-I 462 W/m 9,4 C 11,7 C 16,1 km/h (3 Bft)
29.05.2023 09:21 14,1 C 17,2 C 75 % 1022,2 hPa 0,0 l/m 11,0 km/h (2 Bft) N-NW 338 3 min 2,4 UV-I 472 W/m 9,7 C 11,7 C 16,1 km/h (3 Bft)
29.05.2023 09:24 13,9 C 17,2 C 74 % 1022,2 hPa 0,0 l/m 9,3 km/h (2 Bft) N 355 3 min 2,4 UV-I 480 W/m 9,3 C 12,2 C 14,5 km/h (3 Bft)
29.05.2023 09:27 14,0 C 17,2 C 75 % 1022,1 hPa 0,0 l/m 10,2 km/h (2 Bft) N 349 3 min 2,5 UV-I 485 W/m 9,6 C 11,9 C 14,5 km/h (3 Bft)
29.05.2023 09:30 14,3 C 17,8 C 76 % 1022,1 hPa 0,0 l/m 8,3 km/h (2 Bft) N 360 3 min 2,5 UV-I 489 W/m 10,1 C 13,2 C 14,5 km/h (3 Bft)
29.05.2023 09:33 14,5 C 17,8 C 75 % 1022,1 hPa 0,0 l/m 10,3 km/h (2 Bft) N-NO 26 3 min 2,6 UV-I 491 W/m 10,1 C 12,4 C 16,1 km/h (3 Bft)
29.05.2023 09:36 14,7 C 17,8 C 75 % 1022,1 hPa 0,0 l/m 8,6 km/h (2 Bft) N-NO 13 3 min 2,7 UV-I 490 W/m 10,3 C 13,5 C 12,9 km/h (3 Bft)
29.05.2023 09:39 15,1 C 17,2 C 74 % 1022,0 hPa 0,0 l/m 7,8 km/h (2 Bft) N-NW 347 3 min 2,7 UV-I 489 W/m 10,5 C 14,3 C 12,9 km/h (3 Bft)
29.05.2023 09:42 15,1 C 17,2 C 73 % 1022,1 hPa 0,0 l/m 10,3 km/h (2 Bft) N 355 3 min 2,8 UV-I 484 W/m 10,3 C 13,1 C 16,1 km/h (3 Bft)
29.05.2023 09:45 15,3 C 17,8 C 73 % 1022,1 hPa 0,0 l/m 9,6 km/h (2 Bft) N-NO 23 3 min 2,9 UV-I 480 W/m 10,5 C 13,6 C 17,7 km/h (3 Bft)
29.05.2023 09:48 15,4 C 17,2 C 73 % 1022,1 hPa 0,0 l/m 7,5 km/h (2 Bft) N-NO 23 3 min 2,9 UV-I 475 W/m 10,6 C 14,8 C 12,9 km/h (3 Bft)
29.05.2023 09:51 15,7 C 17,8 C 72 % 1022,2 hPa 0,0 l/m 8,5 km/h (2 Bft) N 9 3 min 3,0 UV-I 470 W/m 10,7 C 14,6 C 16,1 km/h (3 Bft)
29.05.2023 09:54 15,9 C 18,3 C 72 % 1022,2 hPa 0,0 l/m 7,6 km/h (2 Bft) N-NO 22 3 min 3,1 UV-I 465 W/m 10,9 C 15,3 C 14,5 km/h (3 Bft)
29.05.2023 09:57 16,2 C 18,3 C 72 % 1022,2 hPa 0,0 l/m 9,5 km/h (2 Bft) N 5 3 min 3,2 UV-I 462 W/m 11,1 C 14,7 C 16,1 km/h (3 Bft)
29.05.2023 10:00 16,2 C 18,3 C 69 % 1022,2 hPa 0,0 l/m 9,5 km/h (2 Bft) N-NO 20 3 min 3,2 UV-I 461 W/m 10,5 C 14,7 C 14,5 km/h (3 Bft)
29.05.2023 10:03 16,1 C 18,3 C 70 % 1022,2 hPa 0,0 l/m 10,0 km/h (2 Bft) O-NO 61 3 min 3,3 UV-I 462 W/m 10,6 C 14,3 C 19,3 km/h (3 Bft)
29.05.2023 10:06 16,2 C 18,9 C 69 % 1022,2 hPa 0,0 l/m 9,0 km/h (2 Bft) N-NO 19 3 min 3,3 UV-I 466 W/m 10,5 C 14,9 C 16,1 km/h (3 Bft)
29.05.2023 10:09 16,0 C 18,3 C 69 % 1022,2 hPa 0,0 l/m 12,7 km/h (3 Bft) NO 40 3 min 3,4 UV-I 473 W/m 10,3 C 13,2 C 19,3 km/h (3 Bft)
29.05.2023 10:12 15,9 C 17,8 C 69 % 1022,2 hPa 0,0 l/m 14,3 km/h (3 Bft) NO 34 3 min 3,4 UV-I 481 W/m 10,2 C 12,5 C 19,3 km/h (3 Bft)
29.05.2023 10:15 15,9 C 18,3 C 69 % 1022,2 hPa 0,0 l/m 13,2 km/h (3 Bft) N-NO 17 3 min 3,5 UV-I 498 W/m 10,2 C 12,9 C 17,7 km/h (3 Bft)
29.05.2023 10:18 16,2 C 18,9 C 71 % 1022,2 hPa 0,0 l/m 14,8 km/h (3 Bft) N 360 3 min 3,6 UV-I 514 W/m 10,9 C 12,7 C 20,9 km/h (4 Bft)
29.05.2023 10:21 16,4 C 20,0 C 68 % 1022,3 hPa 0,0 l/m 12,2 km/h (2 Bft) N-NO 17 3 min 3,6 UV-I 533 W/m 10,5 C 13,8 C 19,3 km/h (3 Bft)
29.05.2023 10:24 16,4 C 20,0 C 69 % 1022,2 hPa 0,0 l/m 13,5 km/h (3 Bft) N 5 3 min 3,7 UV-I 554 W/m 10,7 C 13,4 C 22,5 km/h (4 Bft)
29.05.2023 10:27 16,6 C 20,0 C 69 % 1022,2 hPa 0,0 l/m 12,0 km/h (2 Bft) N-NO 12 3 min 3,8 UV-I 578 W/m 10,9 C 14,1 C 19,3 km/h (3 Bft)
29.05.2023 10:30 16,6 C 19,4 C 68 % 1022,2 hPa 0,0 l/m 12,8 km/h (3 Bft) N 9 3 min 3,8 UV-I 597 W/m 10,7 C 13,8 C 16,1 km/h (3 Bft)
29.05.2023 10:33 16,9 C 20,0 C 69 % 1022,2 hPa 0,0 l/m 11,9 km/h (2 Bft) N-NO 13 3 min 3,9 UV-I 620 W/m 11,2 C 14,5 C 17,7 km/h (3 Bft)
29.05.2023 10:36 17,1 C 20,0 C 69 % 1022,2 hPa 0,0 l/m 12,1 km/h (2 Bft) N 350 3 min 3,9 UV-I 637 W/m 11,4 C 14,7 C 22,5 km/h (4 Bft)
29.05.2023 10:39 16,9 C 20,6 C 66 % 1022,2 hPa 0,0 l/m 15,6 km/h (3 Bft) N 355 3 min 4,0 UV-I 653 W/m 10,5 C 13,3 C 20,9 km/h (4 Bft)
29.05.2023 10:42 16,7 C 21,1 C 66 % 1022,2 hPa 0,0 l/m 18,7 km/h (3 Bft) N 349 3 min 4,1 UV-I 663 W/m 10,3 C 12,3 C 22,5 km/h (4 Bft)
29.05.2023 10:45 16,9 C 21,1 C 68 % 1022,2 hPa 0,0 l/m 13,0 km/h (3 Bft) N 355 3 min 4,1 UV-I 670 W/m 11,0 C 14,1 C 19,3 km/h (3 Bft)
29.05.2023 10:48 17,1 C 21,1 C 68 % 1022,3 hPa 0,0 l/m 15,0 km/h (3 Bft) N-NO 30 3 min 4,2 UV-I 675 W/m 11,1 C 13,7 C 20,9 km/h (4 Bft)
29.05.2023 10:51 17,1 C 21,7 C 67 % 1022,2 hPa 0,0 l/m 16,1 km/h (3 Bft) N-NO 30 3 min 4,2 UV-I 681 W/m 10,9 C 13,4 C 22,5 km/h (4 Bft)
29.05.2023 10:54 16,9 C 22,2 C 65 % 1022,4 hPa 0,0 l/m 16,7 km/h (3 Bft) N-NW 344 3 min 4,3 UV-I 687 W/m 10,3 C 13,0 C 22,5 km/h (4 Bft)
29.05.2023 10:57 17,0 C 22,2 C 67 % 1022,4 hPa 0,0 l/m 16,0 km/h (3 Bft) N 355 3 min 4,4 UV-I 694 W/m 10,8 C 13,3 C 22,5 km/h (4 Bft)
29.05.2023 11:00 17,2 C 22,8 C 66 % 1022,4 hPa 0,0 l/m 14,9 km/h (3 Bft) N-NW 347 3 min 4,4 UV-I 700 W/m 10,8 C 13,9 C 22,5 km/h (4 Bft)
29.05.2023 11:03 17,5 C 23,9 C 64 % 1022,3 hPa 0,0 l/m 16,1 km/h (3 Bft) N 5 3 min 4,5 UV-I 706 W/m 10,6 C 13,9 C 24,1 km/h (4 Bft)
29.05.2023 11:06 17,3 C 23,3 C 65 % 1022,4 hPa 0,0 l/m 15,7 km/h (3 Bft) N 9 3 min 4,6 UV-I 712 W/m 10,7 C 13,8 C 20,9 km/h (4 Bft)
29.05.2023 11:09 17,3 C 23,9 C 65 % 1022,3 hPa 0,0 l/m 14,8 km/h (3 Bft) N 5 3 min 4,6 UV-I 717 W/m 10,7 C 14,0 C 24,1 km/h (4 Bft)
29.05.2023 11:12 17,4 C 23,9 C 66 % 1022,4 hPa 0,0 l/m 15,6 km/h (3 Bft) N 10 3 min 4,7 UV-I 721 W/m 11,0 C 13,9 C 22,5 km/h (4 Bft)
29.05.2023 11:15 17,5 C 25,0 C 66 % 1022,4 hPa 0,0 l/m 15,6 km/h (3 Bft) N-NW 347 3 min 4,7 UV-I 727 W/m 11,1 C 14,1 C 20,9 km/h (4 Bft)
29.05.2023 11:18 17,6 C 25,0 C 65 % 1022,4 hPa 0,0 l/m 17,0 km/h (3 Bft) N 351 3 min 4,8 UV-I 733 W/m 10,9 C 13,8 C 22,5 km/h (4 Bft)
29.05.2023 11:21 17,4 C 25,0 C 64 % 1022,4 hPa 0,0 l/m 16,3 km/h (3 Bft) N-NW 337 3 min 4,8 UV-I 738 W/m 10,5 C 13,7 C 24,1 km/h (4 Bft)
29.05.2023 11:24 17,5 C 25,6 C 64 % 1022,5 hPa 0,0 l/m 16,8 km/h (3 Bft) N 5 3 min 4,9 UV-I 744 W/m 10,6 C 13,7 C 24,1 km/h (4 Bft)
29.05.2023 11:27 17,7 C 25,6 C 66 % 1022,5 hPa 0,0 l/m 9,6 km/h (2 Bft) N-NW 341 3 min 4,9 UV-I 749 W/m 11,3 C 16,3 C 16,1 km/h (3 Bft)
29.05.2023 11:30 17,7 C 25,6 C 62 % 1022,5 hPa 0,0 l/m 20,5 km/h (4 Bft) N 360 3 min 5,0 UV-I 753 W/m 10,3 C 13,1 C 29,0 km/h (5 Bft)
29.05.2023 11:33 17,9 C 25,6 C 65 % 1022,5 hPa 0,0 l/m 14,0 km/h (3 Bft) N-NW 348 3 min 5,0 UV-I 760 W/m 11,2 C 15,0 C 22,5 km/h (4 Bft)
29.05.2023 11:36 17,9 C 25,6 C 63 % 1022,5 hPa 0,0 l/m 14,6 km/h (3 Bft) N-NO 24 3 min 5,1 UV-I 764 W/m 10,8 C 14,8 C 22,5 km/h (4 Bft)
29.05.2023 11:39 17,9 C 26,1 C 63 % 1022,5 hPa 0,0 l/m 17,9 km/h (3 Bft) N 5 3 min 5,2 UV-I 769 W/m 10,8 C 14,0 C 25,7 km/h (4 Bft)
29.05.2023 11:42 17,9 C 25,6 C 64 % 1022,5 hPa 0,0 l/m 17,6 km/h (3 Bft) N 5 3 min 5,2 UV-I 772 W/m 11,0 C 14,0 C 24,1 km/h (4 Bft)
29.05.2023 11:45 17,7 C 25,6 C 64 % 1022,5 hPa 0,0 l/m 21,9 km/h (4 Bft) N-NO 20 3 min 5,3 UV-I 777 W/m 10,8 C 12,8 C 30,6 km/h (5 Bft)
29.05.2023 11:48 17,9 C 25,6 C 64 % 1022,5 hPa 0,0 l/m 18,8 km/h (3 Bft) N-NO 13 3 min 5,3 UV-I 782 W/m 11,0 C 13,8 C 25,7 km/h (4 Bft)
29.05.2023 11:51 17,8 C 25,6 C 63 % 1022,6 hPa 0,0 l/m 17,0 km/h (3 Bft) NO 49 3 min 5,4 UV-I 789 W/m 10,7 C 14,1 C 24,1 km/h (4 Bft)
29.05.2023 11:54 17,9 C 25,6 C 64 % 1022,6 hPa 0,0 l/m 17,5 km/h (3 Bft) N-NO 17 3 min 5,4 UV-I 793 W/m 11,0 C 14,1 C 22,5 km/h (4 Bft)
29.05.2023 11:57 18,1 C 26,1 C 63 % 1022,5 hPa 0,0 l/m 14,5 km/h (3 Bft) N-NO 13 3 min 5,4 UV-I 784 W/m 10,9 C 15,1 C 20,9 km/h (4 Bft)
29.05.2023 12:00 18,1 C 26,1 C 65 % 1022,6 hPa 0,0 l/m 15,8 km/h (3 Bft) N 355 3 min 5,5 UV-I 785 W/m 11,4 C 14,7 C 25,7 km/h (4 Bft)
29.05.2023 12:03 17,9 C 25,6 C 63 % 1022,6 hPa 0,0 l/m 20,0 km/h (4 Bft) N-NW 342 3 min 5,5 UV-I 785 W/m 10,8 C 13,5 C 27,4 km/h (4 Bft)
29.05.2023 12:06 17,9 C 25,6 C 63 % 1022,6 hPa 0,0 l/m 20,7 km/h (4 Bft) N 5 3 min 5,6 UV-I 810 W/m 10,8 C 13,3 C 29,0 km/h (5 Bft)
29.05.2023 12:09 18,2 C 26,1 C 66 % 1022,6 hPa 0,0 l/m 15,8 km/h (3 Bft) N 5 3 min 5,7 UV-I 814 W/m 11,7 C 14,9 C 27,4 km/h (4 Bft)
29.05.2023 12:12 18,2 C 26,7 C 65 % 1022,7 hPa 0,0 l/m 14,2 km/h (3 Bft) N-NO 15 3 min 5,6 UV-I 797 W/m 11,5 C 15,3 C 22,5 km/h (4 Bft)
29.05.2023 12:15 18,2 C 26,1 C 64 % 1022,7 hPa 0,0 l/m 16,0 km/h (3 Bft) N 5 3 min 5,8 UV-I 831 W/m 11,3 C 14,8 C 22,5 km/h (4 Bft)
29.05.2023 12:18 18,2 C 26,1 C 64 % 1022,6 hPa 0,0 l/m 17,2 km/h (3 Bft) N 5 3 min 5,8 UV-I 828 W/m 11,3 C 14,5 C 24,1 km/h (4 Bft)
29.05.2023 12:21 18,3 C 26,7 C 64 % 1022,7 hPa 0,0 l/m 14,6 km/h (3 Bft) N-NO 15 3 min 5,8 UV-I 817 W/m 11,4 C 15,3 C 20,9 km/h (4 Bft)
29.05.2023 12:24 18,2 C 26,1 C 64 % 1022,7 hPa 0,0 l/m 19,5 km/h (3 Bft) N 5 3 min 5,9 UV-I 830 W/m 11,3 C 14,0 C 27,4 km/h (4 Bft)
29.05.2023 12:27 18,2 C 26,1 C 64 % 1022,7 hPa 0,0 l/m 17,2 km/h (3 Bft) N-NO 12 3 min 5,9 UV-I 839 W/m 11,3 C 14,5 C 29,0 km/h (5 Bft)
29.05.2023 12:30 18,1 C 26,1 C 63 % 1022,7 hPa 0,0 l/m 19,8 km/h (3 Bft) NO 35 3 min 6,0 UV-I 841 W/m 10,9 C 13,8 C 30,6 km/h (5 Bft)
29.05.2023 12:33 18,1 C 26,7 C 64 % 1022,7 hPa 0,0 l/m 17,0 km/h (3 Bft) N-NO 15 3 min 6,0 UV-I 847 W/m 11,2 C 14,4 C 30,6 km/h (5 Bft)
29.05.2023 12:36 18,4 C 27,2 C 68 % 1022,8 hPa 0,0 l/m 12,3 km/h (3 Bft) N-NO 26 3 min 6,0 UV-I 851 W/m 12,4 C 16,1 C 19,3 km/h (3 Bft)
29.05.2023 12:39 18,5 C 27,2 C 67 % 1022,8 hPa 0,0 l/m 14,8 km/h (3 Bft) NO 43 3 min 6,1 UV-I 853 W/m 12,3 C 15,5 C 24,1 km/h (4 Bft)
29.05.2023 12:42 18,4 C 27,2 C 63 % 1022,7 hPa 0,0 l/m 17,2 km/h (3 Bft) NO 40 3 min 6,1 UV-I 850 W/m 11,2 C 14,8 C 24,1 km/h (4 Bft)
29.05.2023 12:45 18,1 C 25,6 C 62 % 1022,7 hPa 0,0 l/m 17,0 km/h (3 Bft) N-NO 21 3 min 6,1 UV-I 852 W/m 10,7 C 14,4 C 24,1 km/h (4 Bft)
29.05.2023 12:48 18,3 C 25,6 C 64 % 1022,7 hPa 0,0 l/m 12,2 km/h (2 Bft) N-NW 331 3 min 6,2 UV-I 862 W/m 11,4 C 16,0 C 20,9 km/h (4 Bft)
29.05.2023 12:51 18,3 C 26,1 C 63 % 1022,8 hPa 0,0 l/m 17,1 km/h (3 Bft) NO 43 3 min 6,2 UV-I 857 W/m 11,1 C 14,7 C 24,1 km/h (4 Bft)
29.05.2023 12:54 18,5 C 26,7 C 63 % 1022,7 hPa 0,0 l/m 12,8 km/h (3 Bft) N-NO 26 3 min 6,2 UV-I 862 W/m 11,3 C 16,1 C 19,3 km/h (3 Bft)
29.05.2023 12:57 18,3 C 26,1 C 63 % 1022,7 hPa 0,0 l/m 16,9 km/h (3 Bft) N-NO 32 3 min 6,1 UV-I 854 W/m 11,1 C 14,7 C 32,2 km/h (5 Bft)
29.05.2023 13:00 18,1 C 25,6 C 63 % 1022,7 hPa 0,0 l/m 20,8 km/h (4 Bft) N 5 3 min 6,2 UV-I 871 W/m 10,9 C 13,6 C 27,4 km/h (4 Bft)
29.05.2023 13:03 18,1 C 25,6 C 63 % 1022,7 hPa 0,0 l/m 20,1 km/h (4 Bft) N 11 3 min 6,2 UV-I 863 W/m 10,9 C 13,7 C 25,7 km/h (4 Bft)
29.05.2023 13:06 18,2 C 25,6 C 65 % 1022,8 hPa 0,0 l/m 17,8 km/h (3 Bft) N-NW 336 3 min 6,3 UV-I 872 W/m 11,5 C 14,4 C 27,4 km/h (4 Bft)
29.05.2023 13:09 18,4 C 26,7 C 65 % 1022,7 hPa 0,0 l/m 16,1 km/h (3 Bft) N-NO 26 3 min 6,3 UV-I 872 W/m 11,7 C 15,0 C 22,5 km/h (4 Bft)
29.05.2023 13:12 18,5 C 26,7 C 62 % 1022,8 hPa 0,0 l/m 17,8 km/h (3 Bft) N-NO 13 3 min 6,2 UV-I 859 W/m 11,1 C 14,7 C 25,7 km/h (4 Bft)
29.05.2023 13:15 18,3 C 26,7 C 63 % 1022,8 hPa 0,0 l/m 17,2 km/h (3 Bft) N-NW 348 3 min 6,3 UV-I 873 W/m 11,1 C 14,6 C 24,1 km/h (4 Bft)
29.05.2023 13:18 18,1 C 26,1 C 63 % 1022,8 hPa 0,0 l/m 21,1 km/h (4 Bft) N-NO 22 3 min 6,2 UV-I 862 W/m 10,9 C 13,5 C 29,0 km/h (5 Bft)
29.05.2023 13:21 17,9 C 26,1 C 65 % 1022,8 hPa 0,0 l/m 17,4 km/h (3 Bft) N-NO 19 3 min 6,1 UV-I 827 W/m 11,2 C 14,1 C 24,1 km/h (4 Bft)
29.05.2023 13:24 18,1 C 26,7 C 62 % 1022,6 hPa 0,0 l/m 19,5 km/h (3 Bft) NO 39 3 min 6,1 UV-I 819 W/m 10,7 C 13,9 C 25,7 km/h (4 Bft)
29.05.2023 13:27 17,9 C 25,0 C 63 % 1022,6 hPa 0,0 l/m 19,5 km/h (3 Bft) N 11 3 min 6,2 UV-I 847 W/m 10,8 C 13,6 C 27,4 km/h (4 Bft)
29.05.2023 13:30 17,9 C 24,4 C 65 % 1022,8 hPa 0,0 l/m 18,8 km/h (3 Bft) N-NW 347 3 min 6,2 UV-I 848 W/m 11,2 C 13,8 C 29,0 km/h (5 Bft)
29.05.2023 13:33 18,0 C 26,1 C 63 % 1022,6 hPa 0,0 l/m 17,9 km/h (3 Bft) N 360 3 min 6,3 UV-I 866 W/m 10,8 C 14,1 C 24,1 km/h (4 Bft)
29.05.2023 13:36 18,3 C 26,7 C 64 % 1022,6 hPa 0,0 l/m 12,8 km/h (3 Bft) N-NO 28 3 min 6,3 UV-I 870 W/m 11,4 C 15,8 C 22,5 km/h (4 Bft)
29.05.2023 13:39 18,3 C 26,7 C 65 % 1022,6 hPa 0,0 l/m 14,6 km/h (3 Bft) N 355 3 min 6,2 UV-I 844 W/m 11,6 C 15,3 C 25,7 km/h (4 Bft)
29.05.2023 13:42 18,3 C 27,2 C 64 % 1022,6 hPa 0,0 l/m 15,1 km/h (3 Bft) N 360 3 min 6,1 UV-I 849 W/m 11,4 C 15,2 C 25,7 km/h (4 Bft)
29.05.2023 13:45 18,3 C 27,2 C 64 % 1022,6 hPa 0,0 l/m 15,3 km/h (3 Bft) N 355 3 min 6,1 UV-I 821 W/m 11,4 C 15,1 C 24,1 km/h (4 Bft)
29.05.2023 13:48 18,3 C 26,7 C 64 % 1022,7 hPa 0,0 l/m 17,7 km/h (3 Bft) N 11 3 min 6,1 UV-I 837 W/m 11,4 C 14,5 C 25,7 km/h (4 Bft)
29.05.2023 13:51 18,1 C 27,2 C 62 % 1022,6 hPa 0,0 l/m 18,8 km/h (3 Bft) N-NO 17 3 min 6,3 UV-I 875 W/m 10,7 C 14,0 C 25,7 km/h (4 Bft)
29.05.2023 13:54 18,2 C 27,2 C 63 % 1022,6 hPa 0,0 l/m 19,4 km/h (3 Bft) N 360 3 min 6,2 UV-I 864 W/m 11,0 C 14,0 C 25,7 km/h (4 Bft)
29.05.2023 13:57 18,2 C 27,2 C 63 % 1022,7 hPa 0,0 l/m 17,7 km/h (3 Bft) N 5 3 min 6,1 UV-I 836 W/m 11,0 C 14,4 C 29,0 km/h (5 Bft)
29.05.2023 14:00 18,4 C 28,3 C 65 % 1022,7 hPa 0,0 l/m 13,9 km/h (3 Bft) N-NO 18 3 min 6,3 UV-I 862 W/m 11,7 C 15,6 C 22,5 km/h (4 Bft)
29.05.2023 14:03 18,3 C 28,3 C 64 % 1022,6 hPa 0,0 l/m 15,3 km/h (3 Bft) N 5 3 min 6,3 UV-I 876 W/m 11,4 C 15,1 C 22,5 km/h (4 Bft)
29.05.2023 14:06 18,2 C 27,8 C 63 % 1022,7 hPa 0,0 l/m 18,7 km/h (3 Bft) N-NO 18 3 min 6,2 UV-I 860 W/m 11,0 C 14,2 C 25,7 km/h (4 Bft)
29.05.2023 14:09 18,2 C 27,2 C 65 % 1022,6 hPa 0,0 l/m 17,7 km/h (3 Bft) N-NO 18 3 min 6,2 UV-I 856 W/m 11,5 C 14,4 C 25,7 km/h (4 Bft)
29.05.2023 14:12 18,2 C 27,2 C 64 % 1022,6 hPa 0,0 l/m 15,8 km/h (3 Bft) N 351 3 min 6,3 UV-I 867 W/m 11,3 C 14,9 C 20,9 km/h (4 Bft)
29.05.2023 14:15 18,2 C 27,2 C 64 % 1022,6 hPa 0,0 l/m 16,8 km/h (3 Bft) N-NO 26 3 min 6,1 UV-I 838 W/m 11,3 C 14,6 C 24,1 km/h (4 Bft)
29.05.2023 14:18 18,0 C 25,6 C 62 % 1022,7 hPa 0,0 l/m 16,5 km/h (3 Bft) NO 38 3 min 5,9 UV-I 811 W/m 10,6 C 14,4 C 24,1 km/h (4 Bft)
29.05.2023 14:21 17,9 C 26,1 C 66 % 1022,7 hPa 0,0 l/m 19,1 km/h (3 Bft) NO 47 3 min 5,8 UV-I 806 W/m 11,5 C 13,7 C 29,0 km/h (5 Bft)
29.05.2023 14:24 17,9 C 25,6 C 64 % 1022,8 hPa 0,0 l/m 15,4 km/h (3 Bft) N 9 3 min 5,8 UV-I 792 W/m 11,0 C 14,6 C 24,1 km/h (4 Bft)
29.05.2023 14:27 18,3 C 26,7 C 67 % 1022,8 hPa 0,0 l/m 15,2 km/h (3 Bft) N-NO 25 3 min 5,9 UV-I 830 W/m 12,1 C 15,1 C 20,9 km/h (4 Bft)
29.05.2023 14:30 18,1 C 26,7 C 65 % 1022,8 hPa 0,0 l/m 18,5 km/h (3 Bft) N-NO 23 3 min 5,9 UV-I 824 W/m 11,4 C 14,1 C 30,6 km/h (5 Bft)
29.05.2023 14:33 17,8 C 26,1 C 64 % 1022,9 hPa 0,0 l/m 18,8 km/h (3 Bft) N 360 3 min 5,8 UV-I 809 W/m 10,9 C 13,6 C 27,4 km/h (4 Bft)
29.05.2023 14:36 17,9 C 26,7 C 66 % 1022,8 hPa 0,0 l/m 18,8 km/h (3 Bft) N 360 3 min 5,9 UV-I 829 W/m 11,5 C 13,8 C 29,0 km/h (5 Bft)
29.05.2023 14:39 18,2 C 27,2 C 66 % 1022,7 hPa 0,0 l/m 14,4 km/h (3 Bft) N 360 3 min 5,9 UV-I 830 W/m 11,7 C 15,2 C 22,5 km/h (4 Bft)
29.05.2023 14:42 18,4 C 27,8 C 67 % 1022,7 hPa 0,0 l/m 15,9 km/h (3 Bft) N-NO 20 3 min 5,9 UV-I 826 W/m 12,2 C 15,1 C 22,5 km/h (4 Bft)
29.05.2023 14:45 18,4 C 27,2 C 67 % 1022,7 hPa 0,0 l/m 16,2 km/h (3 Bft) N-NO 32 3 min 5,7 UV-I 792 W/m 12,2 C 15,0 C 24,1 km/h (4 Bft)
29.05.2023 14:48 18,3 C 27,2 C 64 % 1022,7 hPa 0,0 l/m 19,2 km/h (3 Bft) N 5 3 min 5,7 UV-I 798 W/m 11,4 C 14,2 C 27,4 km/h (4 Bft)
29.05.2023 14:51 18,1 C 25,6 C 63 % 1022,8 hPa 0,0 l/m 15,8 km/h (3 Bft) N-NO 26 3 min 5,7 UV-I 788 W/m 10,9 C 14,7 C 22,5 km/h (4 Bft)
29.05.2023 14:54 18,4 C 27,2 C 66 % 1022,8 hPa 0,0 l/m 15,5 km/h (3 Bft) N-NW 348 3 min 5,9 UV-I 846 W/m 11,9 C 15,2 C 25,7 km/h (4 Bft)
29.05.2023 14:57 18,6 C 28,3 C 67 % 1022,7 hPa 0,0 l/m 13,6 km/h (3 Bft) N-NO 20 3 min 5,9 UV-I 855 W/m 12,3 C 15,9 C 24,1 km/h (4 Bft)
29.05.2023 15:00 18,6 C 27,8 C 65 % 1022,8 hPa 0,0 l/m 16,6 km/h (3 Bft) N-NW 344 3 min 5,5 UV-I 778 W/m 11,9 C 15,2 C 29,0 km/h (5 Bft)
29.05.2023 15:03 18,5 C 27,8 C 65 % 1022,7 hPa 0,0 l/m 14,1 km/h (3 Bft) N-NW 333 3 min 5,4 UV-I 772 W/m 11,8 C 15,7 C 24,1 km/h (4 Bft)
29.05.2023 15:06 18,2 C 26,7 C 65 % 1022,7 hPa 0,0 l/m 18,5 km/h (3 Bft) N 11 3 min 5,0 UV-I 716 W/m 11,5 C 14,2 C 25,7 km/h (4 Bft)
29.05.2023 15:09 18,3 C 26,7 C 66 % 1022,7 hPa 0,0 l/m 16,2 km/h (3 Bft) N-NO 12 3 min 5,3 UV-I 743 W/m 11,8 C 14,9 C 27,4 km/h (4 Bft)
29.05.2023 15:12 18,2 C 26,1 C 63 % 1022,7 hPa 0,0 l/m 17,4 km/h (3 Bft) N-NO 16 3 min 5,3 UV-I 743 W/m 11,0 C 14,5 C 27,4 km/h (4 Bft)
29.05.2023 15:15 18,1 C 25,6 C 64 % 1022,7 hPa 0,0 l/m 20,0 km/h (4 Bft) N 355 3 min 5,2 UV-I 739 W/m 11,2 C 13,8 C 27,4 km/h (4 Bft)
29.05.2023 15:18 18,2 C 26,1 C 65 % 1022,8 hPa 0,0 l/m 16,1 km/h (3 Bft) N-NO 18 3 min 5,2 UV-I 758 W/m 11,5 C 14,8 C 22,5 km/h (4 Bft)
29.05.2023 15:21 18,4 C 26,7 C 64 % 1022,8 hPa 0,0 l/m 18,8 km/h (3 Bft) NO 38 3 min 5,3 UV-I 755 W/m 11,5 C 14,4 C 27,4 km/h (4 Bft)
29.05.2023 15:24 18,3 C 25,6 C 64 % 1022,8 hPa 0,0 l/m 19,2 km/h (3 Bft) N-NO 26 3 min 5,2 UV-I 760 W/m 11,4 C 14,2 C 27,4 km/h (4 Bft)
29.05.2023 15:27 18,1 C 25,6 C 66 % 1022,8 hPa 0,0 l/m 18,0 km/h (3 Bft) N-NO 13 3 min 5,3 UV-I 772 W/m 11,6 C 14,2 C 25,7 km/h (4 Bft)
29.05.2023 15:30 18,1 C 26,1 C 65 % 1022,7 hPa 0,0 l/m 18,6 km/h (3 Bft) N 351 3 min 5,2 UV-I 764 W/m 11,4 C 14,1 C 29,0 km/h (5 Bft)
29.05.2023 15:33 18,1 C 26,7 C 64 % 1022,7 hPa 0,0 l/m 18,3 km/h (3 Bft) N 350 3 min 5,3 UV-I 776 W/m 11,2 C 14,1 C 27,4 km/h (4 Bft)
29.05.2023 15:36 18,4 C 26,7 C 65 % 1022,6 hPa 0,0 l/m 14,7 km/h (3 Bft) N-NO 14 3 min 5,2 UV-I 774 W/m 11,7 C 15,4 C 24,1 km/h (4 Bft)
29.05.2023 15:39 18,4 C 27,2 C 64 % 1022,7 hPa 0,0 l/m 17,5 km/h (3 Bft) N 355 3 min 5,1 UV-I 758 W/m 11,5 C 14,7 C 27,4 km/h (4 Bft)
29.05.2023 15:42 18,3 C 27,2 C 62 % 1022,7 hPa 0,0 l/m 18,1 km/h (3 Bft) N-NW 331 3 min 4,9 UV-I 723 W/m 10,9 C 14,4 C 25,7 km/h (4 Bft)
29.05.2023 15:45 18,2 C 27,2 C 66 % 1022,6 hPa 0,0 l/m 15,2 km/h (3 Bft) N-NW 347 3 min 4,9 UV-I 721 W/m 11,7 C 15,0 C 24,1 km/h (4 Bft)
29.05.2023 15:48 18,5 C 28,3 C 65 % 1022,6 hPa 0,0 l/m 12,7 km/h (3 Bft) N 5 3 min 4,9 UV-I 718 W/m 11,8 C 16,1 C 19,3 km/h (3 Bft)
29.05.2023 15:51 18,5 C 27,8 C 62 % 1022,6 hPa 0,0 l/m 18,0 km/h (3 Bft) N 5 3 min 4,8 UV-I 724 W/m 11,1 C 14,7 C 29,0 km/h (5 Bft)
29.05.2023 15:54 18,4 C 27,2 C 64 % 1022,5 hPa 0,0 l/m 15,6 km/h (3 Bft) N 5 3 min 4,7 UV-I 717 W/m 11,5 C 15,2 C 24,1 km/h (4 Bft)
29.05.2023 15:57 18,4 C 27,2 C 65 % 1022,6 hPa 0,0 l/m 17,9 km/h (3 Bft) N-NO 30 3 min 4,5 UV-I 653 W/m 11,7 C 14,6 C 29,0 km/h (5 Bft)
29.05.2023 16:00 18,4 C 27,2 C 64 % 1022,6 hPa 0,0 l/m 12,1 km/h (2 Bft) NO 37 3 min 4,4 UV-I 653 W/m 11,5 C 16,2 C 20,9 km/h (4 Bft)
29.05.2023 16:03 18,6 C 26,7 C 64 % 1022,7 hPa 0,0 l/m 17,5 km/h (3 Bft) N-NW 346 3 min 4,6 UV-I 681 W/m 11,7 C 14,9 C 27,4 km/h (4 Bft)
29.05.2023 16:06 18,4 C 26,7 C 64 % 1022,4 hPa 0,0 l/m 15,2 km/h (3 Bft) N-NW 334 3 min 4,4 UV-I 681 W/m 11,5 C 15,3 C 24,1 km/h (4 Bft)
29.05.2023 16:09 18,4 C 26,7 C 64 % 1022,4 hPa 0,0 l/m 18,3 km/h (3 Bft) N-NW 348 3 min 4,4 UV-I 688 W/m 11,5 C 14,5 C 29,0 km/h (5 Bft)
29.05.2023 16:12 18,3 C 26,7 C 62 % 1022,8 hPa 0,0 l/m 24,7 km/h (4 Bft) W-NW 302 3 min 4,4 UV-I 678 W/m 10,9 C 13,1 C 32,2 km/h (5 Bft)
29.05.2023 16:15 18,3 C 26,1 C 64 % 1022,6 hPa 0,0 l/m 21,0 km/h (4 Bft) N-NW 344 3 min 4,3 UV-I 670 W/m 11,4 C 13,8 C 29,0 km/h (5 Bft)
29.05.2023 16:18 18,2 C 26,7 C 64 % 1022,5 hPa 0,0 l/m 22,5 km/h (4 Bft) N-NO 26 3 min 4,4 UV-I 683 W/m 11,3 C 13,4 C 35,4 km/h (5 Bft)
29.05.2023 16:21 18,2 C 25,6 C 64 % 1022,4 hPa 0,0 l/m 20,8 km/h (4 Bft) N-NW 336 3 min 4,0 UV-I 617 W/m 11,3 C 13,7 C 33,8 km/h (5 Bft)
29.05.2023 16:24 18,2 C 25,6 C 65 % 1022,4 hPa 0,0 l/m 17,6 km/h (3 Bft) N-NW 342 3 min 4,1 UV-I 638 W/m 11,5 C 14,4 C 25,7 km/h (4 Bft)
29.05.2023 16:27 18,2 C 25,6 C 66 % 1022,4 hPa 0,0 l/m 19,0 km/h (3 Bft) N 355 3 min 4,0 UV-I 617 W/m 11,7 C 14,1 C 27,4 km/h (4 Bft)
29.05.2023 16:30 18,2 C 25,0 C 63 % 1022,4 hPa 0,0 l/m 18,8 km/h (3 Bft) N 5 3 min 4,0 UV-I 647 W/m 11,0 C 14,1 C 30,6 km/h (5 Bft)
29.05.2023 16:33 18,3 C 25,6 C 64 % 1022,3 hPa 0,0 l/m 18,9 km/h (3 Bft) NO 44 3 min 4,0 UV-I 648 W/m 11,4 C 14,2 C 29,0 km/h (5 Bft)
29.05.2023 16:36 18,2 C 25,0 C 63 % 1022,4 hPa 0,0 l/m 21,7 km/h (4 Bft) N 5 3 min 3,9 UV-I 626 W/m 11,0 C 13,5 C 30,6 km/h (5 Bft)
29.05.2023 16:39 18,1 C 25,6 C 64 % 1022,4 hPa 0,0 l/m 21,4 km/h (4 Bft) N-NO 15 3 min 3,8 UV-I 602 W/m 11,2 C 13,5 C 30,6 km/h (5 Bft)
29.05.2023 16:42 18,1 C 25,6 C 64 % 1022,5 hPa 0,0 l/m 19,4 km/h (3 Bft) NO 34 3 min 3,8 UV-I 632 W/m 11,2 C 13,9 C 30,6 km/h (5 Bft)
29.05.2023 16:45 18,1 C 25,6 C 64 % 1022,4 hPa 0,0 l/m 17,8 km/h (3 Bft) N-NW 331 3 min 3,7 UV-I 606 W/m 11,2 C 14,2 C 27,4 km/h (4 Bft)
29.05.2023 16:48 18,2 C 26,1 C 63 % 1022,5 hPa 0,0 l/m 16,0 km/h (3 Bft) N 360 3 min 3,5 UV-I 575 W/m 11,0 C 14,8 C 22,5 km/h (4 Bft)
29.05.2023 16:51 18,3 C 26,1 C 64 % 1022,5 hPa 0,0 l/m 13,1 km/h (3 Bft) N-NO 15 3 min 3,4 UV-I 561 W/m 11,4 C 15,7 C 24,1 km/h (4 Bft)
29.05.2023 16:54 18,2 C 26,1 C 64 % 1022,5 hPa 0,0 l/m 16,9 km/h (3 Bft) N 10 3 min 3,3 UV-I 541 W/m 11,3 C 14,6 C 22,5 km/h (4 Bft)
29.05.2023 16:57 18,1 C 26,1 C 63 % 1022,5 hPa 0,0 l/m 21,0 km/h (4 Bft) N-NO 20 3 min 3,4 UV-I 573 W/m 10,9 C 13,5 C 29,0 km/h (5 Bft)
29.05.2023 17:00 17,8 C 24,4 C 64 % 1022,5 hPa 0,0 l/m 17,5 km/h (3 Bft) N-NO 19 3 min 3,3 UV-I 542 W/m 10,9 C 13,9 C 25,7 km/h (4 Bft)
29.05.2023 17:03 17,8 C 24,4 C 64 % 1022,5 hPa 0,0 l/m 15,2 km/h (3 Bft) N-NO 17 3 min 3,2 UV-I 529 W/m 10,9 C 14,5 C 20,9 km/h (4 Bft)
29.05.2023 17:06 17,7 C 24,4 C 63 % 1022,6 hPa 0,0 l/m 20,1 km/h (4 Bft) N-NO 15 3 min 3,1 UV-I 510 W/m 10,6 C 13,2 C 30,6 km/h (5 Bft)
29.05.2023 17:09 17,6 C 24,4 C 65 % 1022,5 hPa 0,0 l/m 16,7 km/h (3 Bft) N 349 3 min 3,1 UV-I 527 W/m 10,9 C 13,9 C 29,0 km/h (5 Bft)
29.05.2023 17:12 17,6 C 23,9 C 64 % 1022,6 hPa 0,0 l/m 17,3 km/h (3 Bft) N-NW 336 3 min 2,9 UV-I 472 W/m 10,7 C 13,7 C 27,4 km/h (4 Bft)
29.05.2023 17:15 17,5 C 23,9 C 64 % 1022,6 hPa 0,0 l/m 18,1 km/h (3 Bft) N 355 3 min 2,9 UV-I 499 W/m 10,6 C 13,4 C 27,4 km/h (4 Bft)
29.05.2023 17:18 17,4 C 23,9 C 64 % 1022,6 hPa 0,0 l/m 19,2 km/h (3 Bft) N-NO 15 3 min 3,0 UV-I 513 W/m 10,5 C 13,0 C 27,4 km/h (4 Bft)
29.05.2023 17:21 17,4 C 24,4 C 65 % 1022,6 hPa 0,0 l/m 19,5 km/h (3 Bft) N-NO 19 3 min 3,0 UV-I 540 W/m 10,8 C 13,0 C 27,4 km/h (4 Bft)
29.05.2023 17:24 17,5 C 24,4 C 64 % 1022,7 hPa 0,0 l/m 20,1 km/h (4 Bft) N-NW 330 3 min 3,0 UV-I 517 W/m 10,6 C 13,0 C 29,0 km/h (5 Bft)
29.05.2023 17:27 17,4 C 25,0 C 64 % 1022,6 hPa 0,0 l/m 19,6 km/h (3 Bft) N-NO 13 3 min 3,0 UV-I 550 W/m 10,5 C 12,9 C 30,6 km/h (5 Bft)
29.05.2023 17:30 17,6 C 25,6 C 67 % 1022,7 hPa 0,0 l/m 12,8 km/h (3 Bft) N-NO 22 3 min 2,9 UV-I 534 W/m 11,4 C 15,0 C 20,9 km/h (4 Bft)
29.05.2023 17:33 17,7 C 25,6 C 65 % 1022,8 hPa 0,0 l/m 16,7 km/h (3 Bft) N-NO 30 3 min 2,8 UV-I 522 W/m 11,0 C 14,0 C 25,7 km/h (4 Bft)
29.05.2023 17:36 17,7 C 25,6 C 63 % 1022,7 hPa 0,0 l/m 17,0 km/h (3 Bft) N-NO 33 3 min 2,8 UV-I 522 W/m 10,6 C 13,9 C 24,1 km/h (4 Bft)
29.05.2023 17:39 17,7 C 25,6 C 65 % 1022,7 hPa 0,0 l/m 16,6 km/h (3 Bft) N-NO 19 3 min 2,7 UV-I 496 W/m 11,0 C 14,0 C 25,7 km/h (4 Bft)
29.05.2023 17:42 17,6 C 24,4 C 64 % 1022,7 hPa 0,0 l/m 17,5 km/h (3 Bft) N-NW 344 3 min 2,6 UV-I 482 W/m 10,7 C 13,7 C 27,4 km/h (4 Bft)
29.05.2023 17:45 17,4 C 24,4 C 65 % 1022,8 hPa 0,0 l/m 19,0 km/h (3 Bft) N-NO 13 3 min 2,6 UV-I 480 W/m 10,8 C 13,1 C 29,0 km/h (5 Bft)
29.05.2023 17:48 17,4 C 23,9 C 64 % 1022,7 hPa 0,0 l/m 19,7 km/h (3 Bft) N-NO 15 3 min 2,5 UV-I 487 W/m 10,5 C 12,9 C 27,4 km/h (4 Bft)
29.05.2023 17:51 17,4 C 23,9 C 65 % 1022,8 hPa 0,0 l/m 18,1 km/h (3 Bft) N 355 3 min 2,5 UV-I 485 W/m 10,8 C 13,3 C 25,7 km/h (4 Bft)
29.05.2023 17:54 17,3 C 23,9 C 64 % 1022,8 hPa 0,0 l/m 17,3 km/h (3 Bft) N 5 3 min 2,4 UV-I 449 W/m 10,4 C 13,4 C 25,7 km/h (4 Bft)
29.05.2023 17:57 17,3 C 23,9 C 64 % 1022,7 hPa 0,0 l/m 19,9 km/h (4 Bft) N-NW 339 3 min 2,4 UV-I 471 W/m 10,4 C 12,7 C 27,4 km/h (4 Bft)
29.05.2023 18:00 17,3 C 23,9 C 63 % 1022,8 hPa 0,0 l/m 16,8 km/h (3 Bft) N-NO 14 3 min 2,3 UV-I 468 W/m 10,2 C 13,5 C 25,7 km/h (4 Bft)
29.05.2023 18:03 17,4 C 23,3 C 65 % 1022,7 hPa 0,0 l/m 13,0 km/h (3 Bft) N-NO 16 3 min 2,2 UV-I 441 W/m 10,8 C 14,7 C 22,5 km/h (4 Bft)
29.05.2023 18:06 17,4 C 23,3 C 64 % 1022,8 hPa 0,0 l/m 18,4 km/h (3 Bft) N-NO 13 3 min 2,2 UV-I 445 W/m 10,5 C 13,2 C 27,4 km/h (4 Bft)
29.05.2023 18:09 17,4 C 23,3 C 64 % 1022,8 hPa 0,0 l/m 17,8 km/h (3 Bft) N 5 3 min 2,2 UV-I 434 W/m 10,5 C 13,4 C 25,7 km/h (4 Bft)
29.05.2023 18:12 17,3 C 22,8 C 64 % 1022,8 hPa 0,0 l/m 19,8 km/h (3 Bft) N 5 3 min 2,1 UV-I 435 W/m 10,4 C 12,8 C 30,6 km/h (5 Bft)
29.05.2023 18:15 17,3 C 21,7 C 65 % 1022,9 hPa 0,0 l/m 16,9 km/h (3 Bft) N 5 3 min 2,0 UV-I 417 W/m 10,7 C 13,5 C 24,1 km/h (4 Bft)
29.05.2023 18:18 17,2 C 21,1 C 64 % 1022,9 hPa 0,0 l/m 18,8 km/h (3 Bft) N-NW 341 3 min 1,9 UV-I 396 W/m 10,3 C 12,9 C 29,0 km/h (5 Bft)
29.05.2023 18:21 16,9 C 21,1 C 64 % 1022,9 hPa 0,0 l/m 20,3 km/h (4 Bft) NO 36 3 min 1,9 UV-I 395 W/m 10,0 C 12,1 C 30,6 km/h (5 Bft)
29.05.2023 18:24 16,8 C 20,6 C 64 % 1022,9 hPa 0,0 l/m 18,5 km/h (3 Bft) N 5 3 min 1,8 UV-I 379 W/m 10,0 C 12,4 C 29,0 km/h (5 Bft)
29.05.2023 18:27 16,8 C 20,0 C 65 % 1023,0 hPa 0,0 l/m 15,8 km/h (3 Bft) N 360 3 min 1,7 UV-I 351 W/m 10,2 C 13,1 C 30,6 km/h (5 Bft)
29.05.2023 18:30 16,7 C 19,4 C 63 % 1023,0 hPa 0,0 l/m 17,7 km/h (3 Bft) N-NO 25 3 min 1,7 UV-I 349 W/m 9,6 C 12,5 C 25,7 km/h (4 Bft)
29.05.2023 18:33 16,7 C 18,9 C 64 % 1022,9 hPa 0,0 l/m 16,4 km/h (3 Bft) N 355 3 min 1,6 UV-I 348 W/m 9,9 C 12,9 C 24,1 km/h (4 Bft)
29.05.2023 18:36 16,6 C 18,3 C 63 % 1022,9 hPa 0,0 l/m 20,9 km/h (4 Bft) N 360 3 min 1,6 UV-I 361 W/m 9,5 C 11,6 C 29,0 km/h (5 Bft)
29.05.2023 18:39 16,6 C 17,8 C 65 % 1023,0 hPa 0,0 l/m 16,6 km/h (3 Bft) N-NO 19 3 min 1,6 UV-I 349 W/m 10,0 C 12,7 C 22,5 km/h (4 Bft)
29.05.2023 18:42 16,6 C 17,8 C 64 % 1023,0 hPa 0,0 l/m 19,6 km/h (3 Bft) N 360 3 min 1,5 UV-I 340 W/m 9,8 C 11,9 C 33,8 km/h (5 Bft)
29.05.2023 18:45 16,4 C 17,2 C 64 % 1023,1 hPa 0,0 l/m 17,6 km/h (3 Bft) N-NO 31 3 min 1,4 UV-I 324 W/m 9,6 C 12,2 C 25,7 km/h (4 Bft)
29.05.2023 18:48 16,3 C 17,2 C 64 % 1022,9 hPa 0,0 l/m 18,7 km/h (3 Bft) N 5 3 min 1,4 UV-I 325 W/m 9,5 C 11,7 C 30,6 km/h (5 Bft)
29.05.2023 18:51 16,2 C 17,2 C 65 % 1023,0 hPa 0,0 l/m 17,5 km/h (3 Bft) N 355 3 min 1,4 UV-I 324 W/m 9,6 C 11,9 C 25,7 km/h (4 Bft)
29.05.2023 18:54 16,2 C 17,2 C 65 % 1023,0 hPa 0,0 l/m 19,7 km/h (3 Bft) N 5 3 min 1,3 UV-I 315 W/m 9,6 C 11,4 C 29,0 km/h (5 Bft)
29.05.2023 18:57 16,1 C 17,2 C 65 % 1022,9 hPa 0,0 l/m 19,6 km/h (3 Bft) N 11 3 min 1,3 UV-I 308 W/m 9,5 C 11,3 C 30,6 km/h (5 Bft)
29.05.2023 19:00 16,1 C 17,2 C 65 % 1022,9 hPa 0,0 l/m 13,5 km/h (3 Bft) N-NO 23 3 min 1,3 UV-I 299 W/m 9,5 C 13,0 C 20,9 km/h (4 Bft)
29.05.2023 19:03 16,1 C 16,7 C 65 % 1022,9 hPa 0,0 l/m 18,9 km/h (3 Bft) N-NO 33 3 min 1,2 UV-I 286 W/m 9,5 C 11,4 C 29,0 km/h (5 Bft)
29.05.2023 19:06 16,1 C 16,7 C 66 % 1022,9 hPa 0,0 l/m 15,8 km/h (3 Bft) N 351 3 min 1,2 UV-I 277 W/m 9,7 C 12,3 C 27,4 km/h (4 Bft)
29.05.2023 19:09 16,1 C 16,7 C 66 % 1023,0 hPa 0,0 l/m 14,1 km/h (3 Bft) N-NO 21 3 min 1,1 UV-I 270 W/m 9,7 C 12,8 C 24,1 km/h (4 Bft)
29.05.2023 19:12 16,0 C 16,7 C 66 % 1023,0 hPa 0,0 l/m 13,0 km/h (3 Bft) N 355 3 min 1,1 UV-I 266 W/m 9,7 C 13,1 C 22,5 km/h (4 Bft)
29.05.2023 19:15 15,9 C 16,1 C 66 % 1023,1 hPa 0,0 l/m 12,9 km/h (3 Bft) N 360 3 min 1,1 UV-I 265 W/m 9,6 C 13,0 C 24,1 km/h (4 Bft)
29.05.2023 19:18 15,8 C 16,1 C 66 % 1023,0 hPa 0,0 l/m 13,2 km/h (3 Bft) N 360 3 min 1,0 UV-I 260 W/m 9,5 C 12,8 C 20,9 km/h (4 Bft)
29.05.2023 19:21 15,7 C 16,1 C 66 % 1023,0 hPa 0,0 l/m 14,7 km/h (3 Bft) N-NW 347 3 min 1,0 UV-I 253 W/m 9,4 C 12,1 C 22,5 km/h (4 Bft)
29.05.2023 19:24 15,7 C 16,1 C 67 % 1022,9 hPa 0,0 l/m 14,0 km/h (3 Bft) NO 38 3 min 0,9 UV-I 245 W/m 9,6 C 12,4 C 24,1 km/h (4 Bft)
29.05.2023 19:27 15,7 C 16,1 C 67 % 1023,0 hPa 0,0 l/m 14,7 km/h (3 Bft) N-NO 32 3 min 0,9 UV-I 240 W/m 9,6 C 12,1 C 25,7 km/h (4 Bft)
29.05.2023 19:30 15,6 C 15,6 C 67 % 1023,2 hPa 0,0 l/m 18,3 km/h (3 Bft) N-NO 23 3 min 0,9 UV-I 234 W/m 9,5 C 11,0 C 33,8 km/h (5 Bft)
29.05.2023 19:33 15,4 C 15,6 C 66 % 1023,1 hPa 0,0 l/m 15,1 km/h (3 Bft) N 11 3 min 0,8 UV-I 223 W/m 9,1 C 11,6 C 22,5 km/h (4 Bft)
29.05.2023 19:36 15,3 C 15,0 C 67 % 1023,1 hPa 0,0 l/m 17,3 km/h (3 Bft) N 349 3 min 0,8 UV-I 209 W/m 9,2 C 10,9 C 27,4 km/h (4 Bft)
29.05.2023 19:39 15,2 C 15,0 C 67 % 1023,1 hPa 0,0 l/m 16,3 km/h (3 Bft) N-NW 340 3 min 0,7 UV-I 202 W/m 9,1 C 11,0 C 27,4 km/h (4 Bft)
29.05.2023 19:42 15,2 C 15,0 C 68 % 1023,1 hPa 0,0 l/m 13,7 km/h (3 Bft) N 360 3 min 0,7 UV-I 189 W/m 9,3 C 11,9 C 27,4 km/h (4 Bft)
29.05.2023 19:45 15,1 C 14,4 C 67 % 1023,2 hPa 0,0 l/m 16,4 km/h (3 Bft) N-NW 332 3 min 0,6 UV-I 164 W/m 9,0 C 10,9 C 24,1 km/h (4 Bft)
29.05.2023 19:48 15,1 C 14,4 C 67 % 1023,2 hPa 0,0 l/m 17,4 km/h (3 Bft) N 11 3 min 0,6 UV-I 153 W/m 9,0 C 10,6 C 25,7 km/h (4 Bft)
29.05.2023 19:51 14,9 C 14,4 C 67 % 1023,2 hPa 0,0 l/m 17,9 km/h (3 Bft) NO 37 3 min 0,6 UV-I 155 W/m 8,8 C 10,2 C 25,7 km/h (4 Bft)
29.05.2023 19:54 14,8 C 13,9 C 68 % 1023,2 hPa 0,0 l/m 11,5 km/h (2 Bft) N 349 3 min 0,5 UV-I 144 W/m 9,0 C 12,2 C 19,3 km/h (3 Bft)
29.05.2023 19:57 14,7 C 13,9 C 68 % 1023,2 hPa 0,0 l/m 14,2 km/h (3 Bft) N-NW 340 3 min 0,5 UV-I 133 W/m 8,9 C 11,1 C 22,5 km/h (4 Bft)
29.05.2023 20:00 14,6 C 13,9 C 68 % 1023,2 hPa 0,0 l/m 18,4 km/h (3 Bft) N 360 3 min 0,5 UV-I 130 W/m 8,8 C 9,7 C 30,6 km/h (5 Bft)
29.05.2023 20:03 14,4 C 13,3 C 68 % 1023,2 hPa 0,0 l/m 18,0 km/h (3 Bft) N-NW 348 3 min 0,5 UV-I 125 W/m 8,6 C 9,5 C 27,4 km/h (4 Bft)
29.05.2023 20:06 14,3 C 13,3 C 68 % 1023,1 hPa 0,0 l/m 17,9 km/h (3 Bft) N-NO 13 3 min 0,1 UV-I 125 W/m 8,5 C 9,4 C 29,0 km/h (5 Bft)
29.05.2023 20:09 14,3 C 13,3 C 68 % 1023,3 hPa 0,0 l/m 17,1 km/h (3 Bft) N 5 3 min 0,0 UV-I 118 W/m 8,5 C 9,7 C 25,7 km/h (4 Bft)
29.05.2023 20:12 14,2 C 13,3 C 69 % 1023,3 hPa 0,0 l/m 13,4 km/h (3 Bft) N 360 3 min 0,0 UV-I 109 W/m 8,6 C 10,8 C 20,9 km/h (4 Bft)
29.05.2023 20:15 14,2 C 12,8 C 69 % 1023,2 hPa 0,0 l/m 10,0 km/h (2 Bft) N-NW 346 3 min 0,0 UV-I 102 W/m 8,6 C 12,2 C 14,5 km/h (3 Bft)
29.05.2023 20:18 14,1 C 12,8 C 70 % 1023,2 hPa 0,0 l/m 8,1 km/h (2 Bft) N 5 3 min 0,0 UV-I 92 W/m 8,7 C 13,1 C 14,5 km/h (3 Bft)
29.05.2023 20:21 14,0 C 12,8 C 70 % 1023,2 hPa 0,0 l/m 8,9 km/h (2 Bft) N 5 3 min 0,0 UV-I 90 W/m 8,6 C 12,6 C 19,3 km/h (3 Bft)
29.05.2023 20:24 13,9 C 12,8 C 70 % 1023,3 hPa 0,0 l/m 14,0 km/h (3 Bft) N 355 0 min 0,0 UV-I 76 W/m 8,5 C 10,2 C 22,5 km/h (4 Bft)
29.05.2023 20:27 13,9 C 12,8 C 69 % 1023,2 hPa 0,0 l/m 18,1 km/h (3 Bft) N 5 0 min 0,0 UV-I 52 W/m 8,3 C 8,9 C 25,7 km/h (4 Bft)
29.05.2023 20:30 13,9 C 12,8 C 69 % 1023,3 hPa 0,0 l/m 14,5 km/h (3 Bft) N-NO 15 0 min 0,0 UV-I 40 W/m 8,3 C 10,0 C 25,7 km/h (4 Bft)
29.05.2023 20:33 13,8 C 12,8 C 69 % 1023,4 hPa 0,0 l/m 16,7 km/h (3 Bft) N 5 0 min 0,0 UV-I 38 W/m 8,2 C 9,2 C 29,0 km/h (5 Bft)
29.05.2023 20:36 13,8 C 12,8 C 70 % 1023,3 hPa 0,0 l/m 15,0 km/h (3 Bft) N 11 0 min 0,0 UV-I 37 W/m 8,4 C 9,7 C 22,5 km/h (4 Bft)
29.05.2023 20:39 13,7 C 12,2 C 70 % 1023,2 hPa 0,0 l/m 12,6 km/h (3 Bft) N-NO 22 0 min 0,0 UV-I 34 W/m 8,3 C 10,5 C 22,5 km/h (4 Bft)
29.05.2023 20:42 13,7 C 12,2 C 69 % 1023,2 hPa 0,0 l/m 12,3 km/h (3 Bft) N 5 0 min 0,0 UV-I 33 W/m 8,1 C 10,6 C 19,3 km/h (3 Bft)
29.05.2023 20:45 13,6 C 12,2 C 70 % 1023,3 hPa 0,0 l/m 10,9 km/h (2 Bft) N 5 0 min 0,0 UV-I 33 W/m 8,2 C 11,1 C 17,7 km/h (3 Bft)
29.05.2023 20:48 13,5 C 12,2 C 70 % 1023,2 hPa 0,0 l/m 12,3 km/h (3 Bft) N 350 0 min 0,0 UV-I 31 W/m 8,1 C 10,4 C 20,9 km/h (4 Bft)
29.05.2023 20:51 13,4 C 11,7 C 70 % 1023,2 hPa 0,0 l/m 11,5 km/h (2 Bft) N 5 0 min 0,0 UV-I 30 W/m 8,0 C 10,6 C 19,3 km/h (3 Bft)
29.05.2023 20:54 13,4 C 11,7 C 70 % 1023,3 hPa 0,0 l/m 13,1 km/h (3 Bft) N 349 0 min 0,0 UV-I 30 W/m 8,0 C 10,0 C 19,3 km/h (3 Bft)
29.05.2023 20:57 13,4 C 12,2 C 70 % 1023,2 hPa 0,0 l/m 14,0 km/h (3 Bft) N 351 0 min 0,0 UV-I 29 W/m 8,0 C 9,6 C 22,5 km/h (4 Bft)
29.05.2023 21:00 13,4 C 11,7 C 70 % 1023,3 hPa 0,0 l/m 10,0 km/h (2 Bft) N 355 0 min 0,0 UV-I 26 W/m 8,0 C 11,4 C 17,7 km/h (3 Bft)
29.05.2023 21:03 13,2 C 11,7 C 71 % 1023,2 hPa 0,0 l/m 9,9 km/h (2 Bft) N 11 0 min 0,0 UV-I 25 W/m 8,1 C 11,2 C 19,3 km/h (3 Bft)
29.05.2023 21:06 13,2 C 11,7 C 71 % 1023,3 hPa 0,0 l/m 11,6 km/h (2 Bft) NO 40 0 min 0,0 UV-I 23 W/m 8,1 C 10,4 C 20,9 km/h (4 Bft)
29.05.2023 21:09 13,2 C 11,7 C 70 % 1023,3 hPa 0,0 l/m 13,6 km/h (3 Bft) N-NW 344 0 min 0,0 UV-I 20 W/m 7,9 C 9,5 C 19,3 km/h (3 Bft)
29.05.2023 21:12 13,2 C 11,7 C 70 % 1023,2 hPa 0,0 l/m 13,4 km/h (3 Bft) N 9 0 min 0,0 UV-I 19 W/m 7,9 C 9,6 C 20,9 km/h (4 Bft)
29.05.2023 21:15 13,2 C 11,7 C 70 % 1023,3 hPa 0,0 l/m 13,1 km/h (3 Bft) N 5 0 min 0,0 UV-I 17 W/m 7,9 C 9,7 C 24,1 km/h (4 Bft)
29.05.2023 21:18 13,1 C 11,1 C 70 % 1023,3 hPa 0,0 l/m 11,5 km/h (2 Bft) N 5 0 min 0,0 UV-I 15 W/m 7,8 C 10,3 C 17,7 km/h (3 Bft)
29.05.2023 21:21 12,9 C 11,1 C 70 % 1023,3 hPa 0,0 l/m 8,9 km/h (2 Bft) N 5 0 min 0,0 UV-I 13 W/m 7,6 C 11,4 C 16,1 km/h (3 Bft)
29.05.2023 21:24 12,8 C 10,6 C 71 % 1023,3 hPa 0,0 l/m 8,2 km/h (2 Bft) N-NO 16 0 min 0,0 UV-I 11 W/m 7,7 C 11,7 C 20,9 km/h (4 Bft)
29.05.2023 21:27 12,8 C 11,1 C 71 % 1023,4 hPa 0,0 l/m 13,2 km/h (3 Bft) N 360 0 min 0,0 UV-I 9 W/m 7,7 C 9,2 C 19,3 km/h (3 Bft)
29.05.2023 21:30 12,7 C 11,1 C 71 % 1023,4 hPa 0,0 l/m 11,6 km/h (2 Bft) N 5 0 min 0,0 UV-I 7 W/m 7,6 C 9,8 C 20,9 km/h (4 Bft)
29.05.2023 21:33 12,6 C 10,6 C 71 % 1023,4 hPa 0,0 l/m 9,2 km/h (2 Bft) N 360 0 min 0,0 UV-I 5 W/m 7,5 C 10,9 C 14,5 km/h (3 Bft)
29.05.2023 21:36 12,7 C 10,6 C 70 % 1023,4 hPa 0,0 l/m 13,2 km/h (3 Bft) N-NO 13 0 min 0,0 UV-I 3 W/m 7,4 C 9,1 C 22,5 km/h (4 Bft)
29.05.2023 21:39 12,7 C 10,6 C 70 % 1023,3 hPa 0,0 l/m 12,5 km/h (3 Bft) NO 42 0 min 0,0 UV-I 0 W/m 7,4 C 9,4 C 20,9 km/h (4 Bft)
29.05.2023 21:42 12,6 C 10,6 C 70 % 1023,3 hPa 0,0 l/m 14,0 km/h (3 Bft) N 5 0 min 0,0 UV-I 0 W/m 7,3 C 8,7 C 22,5 km/h (4 Bft)
29.05.2023 21:45 12,6 C 10,6 C 70 % 1023,4 hPa 0,0 l/m 11,4 km/h (2 Bft) N-NO 14 0 min 0,0 UV-I 0 W/m 7,3 C 9,8 C 22,5 km/h (4 Bft)
29.05.2023 21:48 12,5 C 10,6 C 70 % 1023,4 hPa 0,0 l/m 12,5 km/h (3 Bft) N-NO 15 0 min 0,0 UV-I 0 W/m 7,2 C 9,2 C 22,5 km/h (4 Bft)
29.05.2023 21:51 12,4 C 10,6 C 70 % 1023,4 hPa 0,0 l/m 11,9 km/h (2 Bft) N-NO 13 0 min 0,0 UV-I 0 W/m 7,1 C 9,3 C 17,7 km/h (3 Bft)
29.05.2023 21:54 12,4 C 10,6 C 70 % 1023,5 hPa 0,0 l/m 13,4 km/h (3 Bft) NO 44 0 min 0,0 UV-I 0 W/m 7,1 C 8,7 C 22,5 km/h (4 Bft)
29.05.2023 21:57 12,4 C 10,6 C 70 % 1023,5 hPa 0,0 l/m 13,2 km/h (3 Bft) N-NO 17 0 min 0,0 UV-I 0 W/m 7,1 C 8,8 C 22,5 km/h (4 Bft)
29.05.2023 22:00 12,4 C 10,6 C 69 % 1023,5 hPa 0,0 l/m 15,9 km/h (3 Bft) N-NO 23 0 min 0,0 UV-I 0 W/m 6,9 C 7,7 C 27,4 km/h (4 Bft)
29.05.2023 22:03 12,4 C 10,6 C 69 % 1023,5 hPa 0,0 l/m 11,5 km/h (2 Bft) N-NO 24 0 min 0,0 UV-I 0 W/m 6,9 C 9,5 C 19,3 km/h (3 Bft)
29.05.2023 22:06 12,3 C 10,0 C 70 % 1023,6 hPa 0,0 l/m 8,8 km/h (2 Bft) N-NO 18 0 min 0,0 UV-I 0 W/m 7,0 C 10,8 C 16,1 km/h (3 Bft)
29.05.2023 22:09 12,1 C 10,0 C 70 % 1023,6 hPa 0,0 l/m 11,5 km/h (2 Bft) NO 34 0 min 0,0 UV-I 0 W/m 6,8 C 9,2 C 19,3 km/h (3 Bft)
29.05.2023 22:12 12,1 C 10,0 C 70 % 1023,6 hPa 0,0 l/m 11,9 km/h (2 Bft) N-NO 30 0 min 0,0 UV-I 0 W/m 6,8 C 9,0 C 17,7 km/h (3 Bft)
29.05.2023 22:15 12,0 C 10,0 C 70 % 1023,7 hPa 0,0 l/m 8,7 km/h (2 Bft) N-NO 30 0 min 0,0 UV-I 0 W/m 6,7 C 10,5 C 14,5 km/h (3 Bft)
29.05.2023 22:18 11,8 C 9,4 C 70 % 1023,7 hPa 0,0 l/m 9,5 km/h (2 Bft) N-NO 13 0 min 0,0 UV-I 0 W/m 6,5 C 9,9 C 16,1 km/h (3 Bft)
29.05.2023 22:21 11,8 C 9,4 C 70 % 1023,7 hPa 0,0 l/m 11,2 km/h (2 Bft) N-NO 22 0 min 0,0 UV-I 0 W/m 6,5 C 9,0 C 17,7 km/h (3 Bft)
29.05.2023 22:24 11,8 C 9,4 C 70 % 1023,7 hPa 0,0 l/m 12,2 km/h (2 Bft) N-NO 16 0 min 0,0 UV-I 0 W/m 6,5 C 8,5 C 22,5 km/h (4 Bft)
29.05.2023 22:27 11,9 C 9,4 C 69 % 1023,7 hPa 0,0 l/m 13,5 km/h (3 Bft) N-NO 13 0 min 0,0 UV-I 0 W/m 6,4 C 8,0 C 22,5 km/h (4 Bft)
29.05.2023 22:30 11,9 C 9,4 C 69 % 1023,7 hPa 0,0 l/m 15,2 km/h (3 Bft) N 9 0 min 0,0 UV-I 0 W/m 6,4 C 7,4 C 22,5 km/h (4 Bft)
29.05.2023 22:33 11,8 C 9,4 C 69 % 1023,8 hPa 0,0 l/m 11,2 km/h (2 Bft) N-NO 12 0 min 0,0 UV-I 0 W/m 6,3 C 9,0 C 16,1 km/h (3 Bft)
29.05.2023 22:36 11,7 C 9,4 C 69 % 1023,7 hPa 0,0 l/m 11,2 km/h (2 Bft) N 5 0 min 0,0 UV-I 0 W/m 6,2 C 8,9 C 17,7 km/h (3 Bft)
29.05.2023 22:39 11,7 C 9,4 C 69 % 1023,9 hPa 0,0 l/m 12,9 km/h (3 Bft) N-NO 17 0 min 0,0 UV-I 0 W/m 6,2 C 8,1 C 20,9 km/h (4 Bft)
29.05.2023 22:42 11,7 C 9,4 C 69 % 1023,8 hPa 0,0 l/m 11,0 km/h (2 Bft) N-NO 19 0 min 0,0 UV-I 0 W/m 6,2 C 9,0 C 17,7 km/h (3 Bft)
29.05.2023 22:45 11,7 C 9,4 C 68 % 1023,9 hPa 0,0 l/m 14,8 km/h (3 Bft) N-NO 22 0 min 0,0 UV-I 0 W/m 6,0 C 7,3 C 24,1 km/h (4 Bft)
29.05.2023 22:48 11,6 C 9,4 C 68 % 1023,9 hPa 0,0 l/m 10,0 km/h (2 Bft) N-NO 22 0 min 0,0 UV-I 0 W/m 5,9 C 9,4 C 16,1 km/h (3 Bft)
29.05.2023 22:51 11,4 C 9,4 C 68 % 1024,0 hPa 0,0 l/m 11,9 km/h (2 Bft) N 360 0 min 0,0 UV-I 0 W/m 5,7 C 8,2 C 17,7 km/h (3 Bft)
29.05.2023 22:54 11,4 C 8,9 C 68 % 1023,9 hPa 0,0 l/m 10,2 km/h (2 Bft) N-NO 22 0 min 0,0 UV-I 0 W/m 5,7 C 9,0 C 16,1 km/h (3 Bft)
29.05.2023 22:57 11,4 C 9,4 C 68 % 1024,0 hPa 0,0 l/m 11,3 km/h (2 Bft) N 11 0 min 0,0 UV-I 0 W/m 5,7 C 8,5 C 16,1 km/h (3 Bft)
29.05.2023 23:00 11,4 C 8,9 C 68 % 1023,9 hPa 0,0 l/m 12,9 km/h (3 Bft) N 9 0 min 0,0 UV-I 0 W/m 5,7 C 7,7 C 19,3 km/h (3 Bft)
29.05.2023 23:03 11,3 C 8,9 C 68 % 1023,9 hPa 0,0 l/m 10,9 km/h (2 Bft) N-NO 15 0 min 0,0 UV-I 0 W/m 5,6 C 8,6 C 17,7 km/h (3 Bft)
29.05.2023 23:07 11,3 C 8,9 C 68 % 1024,0 hPa 0,0 l/m 11,7 km/h (2 Bft) N-NO 30 0 min 0,0 UV-I 0 W/m 5,6 C 8,2 C 17,7 km/h (3 Bft)
29.05.2023 23:09 11,2 C 8,9 C 68 % 1023,8 hPa 0,0 l/m 10,4 km/h (2 Bft) N-NO 28 0 min 0,0 UV-I 0 W/m 5,5 C 8,7 C 16,1 km/h (3 Bft)
29.05.2023 23:14 11,0 C 8,3 C 68 % 1024,0 hPa 0,0 l/m 9,7 km/h (2 Bft) N-NO 19 0 min 0,0 UV-I 0 W/m 5,3 C 8,9 C 16,1 km/h (3 Bft)
29.05.2023 23:15 10,9 C 8,3 C 69 % 1024,0 hPa 0,0 l/m 9,3 km/h (2 Bft) N-NO 26 0 min 0,0 UV-I 0 W/m 5,4 C 9,0 C 12,9 km/h (3 Bft)
29.05.2023 23:16 10,9 C 8,3 C 69 % 1024,1 hPa 0,0 l/m 10,1 km/h (2 Bft) N-NO 27 0 min 0,0 UV-I 0 W/m 5,4 C 8,5 C 14,5 km/h (3 Bft)
29.05.2023 23:17 10,8 C 8,3 C 69 % 1024,1 hPa 0,0 l/m 8,0 km/h (2 Bft) N-NO 22 0 min 0,0 UV-I 0 W/m 5,3 C 9,7 C 12,9 km/h (3 Bft)
29.05.2023 23:18 10,8 C 8,3 C 69 % 1024,0 hPa 0,0 l/m 8,0 km/h (2 Bft) N-NO 22 0 min 0,0 UV-I 0 W/m 5,3 C 9,7 C 12,9 km/h (3 Bft)
29.05.2023 23:21 10,7 C 8,3 C 69 % 1024,0 hPa 0,0 l/m 9,7 km/h (2 Bft) N-NO 22 0 min 0,0 UV-I 0 W/m 5,2 C 8,5 C 14,5 km/h (3 Bft)
29.05.2023 23:24 10,7 C 7,8 C 69 % 1024,1 hPa 0,0 l/m 11,0 km/h (2 Bft) N-NO 17 0 min 0,0 UV-I 0 W/m 5,2 C 7,8 C 16,1 km/h (3 Bft)
29.05.2023 23:27 10,6 C 7,8 C 69 % 1024,1 hPa 0,0 l/m 10,8 km/h (2 Bft) N-NO 25 0 min 0,0 UV-I 0 W/m 5,2 C 7,8 C 16,1 km/h (3 Bft)
29.05.2023 23:30 10,7 C 8,3 C 69 % 1024,0 hPa 0,0 l/m 13,7 km/h (3 Bft) N-NO 22 0 min 0,0 UV-I 0 W/m 5,2 C 6,5 C 19,3 km/h (3 Bft)
29.05.2023 23:33 10,9 C 8,3 C 68 % 1024,0 hPa 0,0 l/m 13,4 km/h (3 Bft) N-NO 19 0 min 0,0 UV-I 0 W/m 5,2 C 6,9 C 20,9 km/h (4 Bft)
29.05.2023 23:36 11,1 C 8,9 C 67 % 1024,0 hPa 0,0 l/m 14,8 km/h (3 Bft) N-NO 26 0 min 0,0 UV-I 0 W/m 5,2 C 6,5 C 22,5 km/h (4 Bft)
29.05.2023 23:39 11,1 C 8,9 C 67 % 1023,9 hPa 0,0 l/m 15,6 km/h (3 Bft) N-NO 28 0 min 0,0 UV-I 0 W/m 5,2 C 6,2 C 22,5 km/h (4 Bft)
29.05.2023 23:42 11,2 C 8,9 C 67 % 1024,0 hPa 0,0 l/m 16,8 km/h (3 Bft) N-NO 15 0 min 0,0 UV-I 0 W/m 5,3 C 5,9 C 22,5 km/h (4 Bft)
29.05.2023 23:45 11,2 C 8,9 C 67 % 1024,0 hPa 0,0 l/m 17,4 km/h (3 Bft) N 11 0 min 0,0 UV-I 0 W/m 5,3 C 5,7 C 24,1 km/h (4 Bft)
29.05.2023 23:48 11,2 C 8,9 C 67 % 1024,0 hPa 0,0 l/m 16,1 km/h (3 Bft) N-NO 17 0 min 0,0 UV-I 0 W/m 5,3 C 6,2 C 22,5 km/h (4 Bft)
29.05.2023 23:51 11,2 C 9,4 C 67 % 1024,0 hPa 0,0 l/m 16,2 km/h (3 Bft) N-NO 26 0 min 0,0 UV-I 0 W/m 5,3 C 6,1 C 22,5 km/h (4 Bft)
29.05.2023 23:54 11,1 C 8,9 C 67 % 1024,0 hPa 0,0 l/m 15,3 km/h (3 Bft) N 360 0 min 0,0 UV-I 0 W/m 5,2 C 6,3 C 20,9 km/h (4 Bft)
29.05.2023 23:57 11,1 C 9,4 C 67 % 1024,1 hPa 0,0 l/m 16,6 km/h (3 Bft) N 11 0 min 0,0 UV-I 0 W/m 5,2 C 5,9 C 22,5 km/h (4 Bft)
_ Min-Zeit 06:03 04:57 11:30 00:51 - 04:03 - - - - - 23:27 05:33 04:03
Minimum _ 8,5 C 6,1 C 62 % 1020,8 hPa - 0,0 km/h (0 Bft) - - - - - 5,2 C 4,4 C 0,0 km/h (0 Bft)
_ Max-Zeit 12:42 14:00 04:48 23:16 00:00 16:12 - - 07:21 13:06 14:03 12:36 11:27 16:18
Maximum _ 18,7 C 28,3 C 87 % 1024,1 hPa 0,0 l/m 24,7 km/h
W-NW (4 Bft)
- - 3 min 6,3 UV-I 876 W/m 12,4 C 16,3 C 35,4 km/h
N (5 Bft)
Durchschnitt _ 14,0 C 15,7 C 72 % 1022,3 hPa #0,0 l/m 11,8 km/h (2 Bft) N - #13:03 h 3,5 UV-I 462 W/m 9,0 C 11,6 C 18,6 km/h (3 Bft)